<?xml version="1.0" encoding="UTF-8" standalone="no" ?><gpx xmlns="http://www.topografix.com/GPX/1/1" xmlns:gpxx="http://www.garmin.com/xmlschemas/GpxExtensions/v3" xmlns:wptx1="http://www.garmin.com/xmlschemas/WaypointExtension/v1" xmlns:gpxtpx="http://www.garmin.com/xmlschemas/TrackPointExtension/v1" creator="GuideVTT.com" version="1.1" xmlns:xsi="http://www.w3.org/2001/XMLSchema-instance" xsi:schemaLocation="http://www.topografix.com/GPX/1/1 http://www.topografix.com/GPX/1/1/gpx.xsd http://www.garmin.com/xmlschemas/GpxExtensions/v3 http://www8.garmin.com/xmlschemas/GpxExtensionsv3.xsd http://www.garmin.com/xmlschemas/WaypointExtension/v1 http://www8.garmin.com/xmlschemas/WaypointExtensionv1.xsd http://www.garmin.com/xmlschemas/TrackPointExtension/v1 http://www.garmin.com/xmlschemas/TrackPointExtensionv1.xsd">
<metadata><link href="http://www.garmin.com"><text>Garmin International</text></link><time>2013-06-22T15:13:50Z</time></metadata>
<trk><name>2020-05-17_1059__20200517_1059.gpx</name><extensions><gpxx:TrackExtension><gpxx:DisplayColor>Cyan</gpxx:DisplayColor></gpxx:TrackExtension></extensions><trkseg>
<trkpt lat="49.1276470" lon="2.6899741"><ele></ele><time>2025-5-19T12:31:48Z</time></trkpt>
<trkpt lat="49.1274640" lon="2.6900519"><ele></ele><time>2025-5-19T12:31:51Z</time></trkpt>
<trkpt lat="49.1273818" lon="2.6897944"><ele></ele><time>2025-5-19T12:31:54Z</time></trkpt>
<trkpt lat="49.1274235" lon="2.6894891"><ele></ele><time>2025-5-19T12:31:57Z</time></trkpt>
<trkpt lat="49.1275010" lon="2.6892391"><ele></ele><time>2025-5-19T12:32:0Z</time></trkpt>
<trkpt lat="49.1275616" lon="2.6889423"><ele></ele><time>2025-5-19T12:32:3Z</time></trkpt>
<trkpt lat="49.1276337" lon="2.6886613"><ele></ele><time>2025-5-19T12:32:6Z</time></trkpt>
<trkpt lat="49.1277275" lon="2.6883941"><ele></ele><time>2025-5-19T12:32:9Z</time></trkpt>
<trkpt lat="49.1277985" lon="2.6881253"><ele></ele><time>2025-5-19T12:32:12Z</time></trkpt>
<trkpt lat="49.1278791" lon="2.6878302"><ele></ele><time>2025-5-19T12:32:15Z</time></trkpt>
<trkpt lat="49.1279653" lon="2.6875358"><ele></ele><time>2025-5-19T12:32:18Z</time></trkpt>
<trkpt lat="49.1280293" lon="2.6872415"><ele></ele><time>2025-5-19T12:32:21Z</time></trkpt>
<trkpt lat="49.1280773" lon="2.6869651"><ele></ele><time>2025-5-19T12:32:24Z</time></trkpt>
<trkpt lat="49.1281120" lon="2.6866824"><ele></ele><time>2025-5-19T12:32:27Z</time></trkpt>
<trkpt lat="49.1281495" lon="2.6863755"><ele></ele><time>2025-5-19T12:32:30Z</time></trkpt>
<trkpt lat="49.1281866" lon="2.6860712"><ele></ele><time>2025-5-19T12:32:33Z</time></trkpt>
<trkpt lat="49.1281964" lon="2.6857743"><ele></ele><time>2025-5-19T12:32:36Z</time></trkpt>
<trkpt lat="49.1283116" lon="2.6855603"><ele></ele><time>2025-5-19T12:32:39Z</time></trkpt>
<trkpt lat="49.1284804" lon="2.6854383"><ele></ele><time>2025-5-19T12:32:42Z</time></trkpt>
<trkpt lat="49.1286701" lon="2.6853315"><ele></ele><time>2025-5-19T12:32:45Z</time></trkpt>
<trkpt lat="49.1288466" lon="2.6852391"><ele></ele><time>2025-5-19T12:32:48Z</time></trkpt>
<trkpt lat="49.1290259" lon="2.6851874"><ele></ele><time>2025-5-19T12:32:51Z</time></trkpt>
<trkpt lat="49.1292173" lon="2.6850092"><ele></ele><time>2025-5-19T12:32:54Z</time></trkpt>
<trkpt lat="49.1294606" lon="2.6850164"><ele></ele><time>2025-5-19T12:32:57Z</time></trkpt>
<trkpt lat="49.1296561" lon="2.6851403"><ele></ele><time>2025-5-19T12:33:0Z</time></trkpt>
<trkpt lat="49.1298397" lon="2.6851215"><ele></ele><time>2025-5-19T12:33:3Z</time></trkpt>
<trkpt lat="49.1300105" lon="2.6849983"><ele></ele><time>2025-5-19T12:33:6Z</time></trkpt>
<trkpt lat="49.1302912" lon="2.6848284"><ele></ele><time>2025-5-19T12:33:9Z</time></trkpt>
<trkpt lat="49.1304582" lon="2.6847014"><ele></ele><time>2025-5-19T12:33:12Z</time></trkpt>
<trkpt lat="49.1306135" lon="2.6845063"><ele></ele><time>2025-5-19T12:33:15Z</time></trkpt>
<trkpt lat="49.1308080" lon="2.6846080"><ele></ele><time>2025-5-19T12:33:18Z</time></trkpt>
<trkpt lat="49.1309996" lon="2.6845603"><ele></ele><time>2025-5-19T12:33:21Z</time></trkpt>
<trkpt lat="49.1311503" lon="2.6843916"><ele></ele><time>2025-5-19T12:33:24Z</time></trkpt>
<trkpt lat="49.1312604" lon="2.6841333"><ele></ele><time>2025-5-19T12:33:27Z</time></trkpt>
<trkpt lat="49.1314426" lon="2.6841421"><ele></ele><time>2025-5-19T12:33:30Z</time></trkpt>
<trkpt lat="49.1316096" lon="2.6840319"><ele></ele><time>2025-5-19T12:33:33Z</time></trkpt>
<trkpt lat="49.1317766" lon="2.6838871"><ele></ele><time>2025-5-19T12:33:36Z</time></trkpt>
<trkpt lat="49.1319626" lon="2.6838701"><ele></ele><time>2025-5-19T12:33:39Z</time></trkpt>
<trkpt lat="49.1321134" lon="2.6840575"><ele></ele><time>2025-5-19T12:33:42Z</time></trkpt>
<trkpt lat="49.1322937" lon="2.6841530"><ele></ele><time>2025-5-19T12:33:45Z</time></trkpt>
<trkpt lat="49.1323458" lon="2.6845186"><ele></ele><time>2025-5-19T12:33:48Z</time></trkpt>
<trkpt lat="49.1324264" lon="2.6848149"><ele></ele><time>2025-5-19T12:33:51Z</time></trkpt>
<trkpt lat="49.1325829" lon="2.6849544"><ele></ele><time>2025-5-19T12:33:54Z</time></trkpt>
<trkpt lat="49.1327306" lon="2.6851451"><ele></ele><time>2025-5-19T12:33:57Z</time></trkpt>
<trkpt lat="49.1328428" lon="2.6853923"><ele></ele><time>2025-5-19T12:34:0Z</time></trkpt>
<trkpt lat="49.1330430" lon="2.6854411"><ele></ele><time>2025-5-19T12:34:3Z</time></trkpt>
<trkpt lat="49.1332258" lon="2.6855130"><ele></ele><time>2025-5-19T12:34:6Z</time></trkpt>
<trkpt lat="49.1334156" lon="2.6855255"><ele></ele><time>2025-5-19T12:34:9Z</time></trkpt>
<trkpt lat="49.1335709" lon="2.6856704"><ele></ele><time>2025-5-19T12:34:12Z</time></trkpt>
<trkpt lat="49.1337524" lon="2.6858300"><ele></ele><time>2025-5-19T12:34:15Z</time></trkpt>
<trkpt lat="49.1339496" lon="2.6859153"><ele></ele><time>2025-5-19T12:34:18Z</time></trkpt>
<trkpt lat="49.1341632" lon="2.6859348"><ele></ele><time>2025-5-19T12:34:21Z</time></trkpt>
<trkpt lat="49.1343365" lon="2.6858571"><ele></ele><time>2025-5-19T12:34:24Z</time></trkpt>
<trkpt lat="49.1345226" lon="2.6858983"><ele></ele><time>2025-5-19T12:34:27Z</time></trkpt>
<trkpt lat="49.1347002" lon="2.6860526"><ele></ele><time>2025-5-19T12:34:30Z</time></trkpt>
<trkpt lat="49.1348973" lon="2.6861610"><ele></ele><time>2025-5-19T12:34:33Z</time></trkpt>
<trkpt lat="49.1350716" lon="2.6863385"><ele></ele><time>2025-5-19T12:34:36Z</time></trkpt>
<trkpt lat="49.1352326" lon="2.6865278"><ele></ele><time>2025-5-19T12:34:39Z</time></trkpt>
<trkpt lat="49.1353787" lon="2.6867133"><ele></ele><time>2025-5-19T12:34:42Z</time></trkpt>
<trkpt lat="49.1355184" lon="2.6869287"><ele></ele><time>2025-5-19T12:34:45Z</time></trkpt>
<trkpt lat="49.1356817" lon="2.6870459"><ele></ele><time>2025-5-19T12:34:48Z</time></trkpt>
<trkpt lat="49.1358878" lon="2.6870748"><ele></ele><time>2025-5-19T12:34:51Z</time></trkpt>
<trkpt lat="49.1360982" lon="2.6871679"><ele></ele><time>2025-5-19T12:34:54Z</time></trkpt>
<trkpt lat="49.1362861" lon="2.6872170"><ele></ele><time>2025-5-19T12:34:57Z</time></trkpt>
<trkpt lat="49.1365213" lon="2.6871150"><ele></ele><time>2025-5-19T12:35:0Z</time></trkpt>
<trkpt lat="49.1367195" lon="2.6870579"><ele></ele><time>2025-5-19T12:35:3Z</time></trkpt>
<trkpt lat="49.1369253" lon="2.6870607"><ele></ele><time>2025-5-19T12:35:6Z</time></trkpt>
<trkpt lat="49.1371053" lon="2.6870087"><ele></ele><time>2025-5-19T12:35:9Z</time></trkpt>
<trkpt lat="49.1372956" lon="2.6870129"><ele></ele><time>2025-5-19T12:35:12Z</time></trkpt>
<trkpt lat="49.1374819" lon="2.6870831"><ele></ele><time>2025-5-19T12:35:15Z</time></trkpt>
<trkpt lat="49.1376717" lon="2.6870979"><ele></ele><time>2025-5-19T12:35:18Z</time></trkpt>
<trkpt lat="49.1378128" lon="2.6868550"><ele></ele><time>2025-5-19T12:35:21Z</time></trkpt>
<trkpt lat="49.1379491" lon="2.6866452"><ele></ele><time>2025-5-19T12:35:24Z</time></trkpt>
<trkpt lat="49.1380882" lon="2.6864664"><ele></ele><time>2025-5-19T12:35:27Z</time></trkpt>
<trkpt lat="49.1382791" lon="2.6863909"><ele></ele><time>2025-5-19T12:35:30Z</time></trkpt>
<trkpt lat="49.1383924" lon="2.6861635"><ele></ele><time>2025-5-19T12:35:33Z</time></trkpt>
<trkpt lat="49.1385326" lon="2.6859005"><ele></ele><time>2025-5-19T12:35:36Z</time></trkpt>
<trkpt lat="49.1387018" lon="2.6856591"><ele></ele><time>2025-5-19T12:35:39Z</time></trkpt>
<trkpt lat="49.1387742" lon="2.6853977"><ele></ele><time>2025-5-19T12:35:42Z</time></trkpt>
<trkpt lat="49.1388955" lon="2.6851925"><ele></ele><time>2025-5-19T12:35:45Z</time></trkpt>
<trkpt lat="49.1389727" lon="2.6849437"><ele></ele><time>2025-5-19T12:35:48Z</time></trkpt>
<trkpt lat="49.1390210" lon="2.6846533"><ele></ele><time>2025-5-19T12:35:51Z</time></trkpt>
<trkpt lat="49.1390749" lon="2.6843851"><ele></ele><time>2025-5-19T12:35:54Z</time></trkpt>
<trkpt lat="49.1390586" lon="2.6841064"><ele></ele><time>2025-5-19T12:35:57Z</time></trkpt>
<trkpt lat="49.1392389" lon="2.6841317"><ele></ele><time>2025-5-19T12:36:0Z</time></trkpt>
<trkpt lat="49.1393550" lon="2.6838989"><ele></ele><time>2025-5-19T12:36:3Z</time></trkpt>
<trkpt lat="49.1393729" lon="2.6835902"><ele></ele><time>2025-5-19T12:36:6Z</time></trkpt>
<trkpt lat="49.1393781" lon="2.6832852"><ele></ele><time>2025-5-19T12:36:9Z</time></trkpt>
<trkpt lat="49.1394789" lon="2.6830312"><ele></ele><time>2025-5-19T12:36:12Z</time></trkpt>
<trkpt lat="49.1396156" lon="2.6827939"><ele></ele><time>2025-5-19T12:36:15Z</time></trkpt>
<trkpt lat="49.1397121" lon="2.6825531"><ele></ele><time>2025-5-19T12:36:18Z</time></trkpt>
<trkpt lat="49.1398697" lon="2.6823764"><ele></ele><time>2025-5-19T12:36:21Z</time></trkpt>
<trkpt lat="49.1399969" lon="2.6821794"><ele></ele><time>2025-5-19T12:36:24Z</time></trkpt>
<trkpt lat="49.1400932" lon="2.6819470"><ele></ele><time>2025-5-19T12:36:27Z</time></trkpt>
<trkpt lat="49.1401781" lon="2.6816851"><ele></ele><time>2025-5-19T12:36:30Z</time></trkpt>
<trkpt lat="49.1402151" lon="2.6813976"><ele></ele><time>2025-5-19T12:36:33Z</time></trkpt>
<trkpt lat="49.1403414" lon="2.6811564"><ele></ele><time>2025-5-19T12:36:36Z</time></trkpt>
<trkpt lat="49.1404665" lon="2.6809214"><ele></ele><time>2025-5-19T12:36:39Z</time></trkpt>
<trkpt lat="49.1405051" lon="2.6806101"><ele></ele><time>2025-5-19T12:36:42Z</time></trkpt>
<trkpt lat="49.1404649" lon="2.6803056"><ele></ele><time>2025-5-19T12:36:45Z</time></trkpt>
<trkpt lat="49.1405328" lon="2.6799858"><ele></ele><time>2025-5-19T12:36:48Z</time></trkpt>
<trkpt lat="49.1406013" lon="2.6796605"><ele></ele><time>2025-5-19T12:36:51Z</time></trkpt>
<trkpt lat="49.1405968" lon="2.6793358"><ele></ele><time>2025-5-19T12:36:54Z</time></trkpt>
<trkpt lat="49.1405841" lon="2.6790482"><ele></ele><time>2025-5-19T12:36:57Z</time></trkpt>
<trkpt lat="49.1404874" lon="2.6787923"><ele></ele><time>2025-5-19T12:37:0Z</time></trkpt>
<trkpt lat="49.1404184" lon="2.6785205"><ele></ele><time>2025-5-19T12:37:3Z</time></trkpt>
<trkpt lat="49.1404051" lon="2.6782458"><ele></ele><time>2025-5-19T12:37:6Z</time></trkpt>
<trkpt lat="49.1404124" lon="2.6779177"><ele></ele><time>2025-5-19T12:37:9Z</time></trkpt>
<trkpt lat="49.1405339" lon="2.6776681"><ele></ele><time>2025-5-19T12:37:12Z</time></trkpt>
<trkpt lat="49.1406174" lon="2.6774106"><ele></ele><time>2025-5-19T12:37:15Z</time></trkpt>
<trkpt lat="49.1407088" lon="2.6771539"><ele></ele><time>2025-5-19T12:37:18Z</time></trkpt>
<trkpt lat="49.1406972" lon="2.6768606"><ele></ele><time>2025-5-19T12:37:21Z</time></trkpt>
<trkpt lat="49.1406188" lon="2.6765968"><ele></ele><time>2025-5-19T12:37:24Z</time></trkpt>
<trkpt lat="49.1406375" lon="2.6763145"><ele></ele><time>2025-5-19T12:37:27Z</time></trkpt>
<trkpt lat="49.1405894" lon="2.6760496"><ele></ele><time>2025-5-19T12:37:30Z</time></trkpt>
<trkpt lat="49.1406822" lon="2.6758112"><ele></ele><time>2025-5-19T12:37:33Z</time></trkpt>
<trkpt lat="49.1407144" lon="2.6754845"><ele></ele><time>2025-5-19T12:37:36Z</time></trkpt>
<trkpt lat="49.1406840" lon="2.6752004"><ele></ele><time>2025-5-19T12:37:39Z</time></trkpt>
<trkpt lat="49.1407766" lon="2.6749043"><ele></ele><time>2025-5-19T12:37:42Z</time></trkpt>
<trkpt lat="49.1407287" lon="2.6746132"><ele></ele><time>2025-5-19T12:37:45Z</time></trkpt>
<trkpt lat="49.1408304" lon="2.6742729"><ele></ele><time>2025-5-19T12:37:48Z</time></trkpt>
<trkpt lat="49.1407582" lon="2.6739986"><ele></ele><time>2025-5-19T12:37:51Z</time></trkpt>
<trkpt lat="49.1408752" lon="2.6737850"><ele></ele><time>2025-5-19T12:37:54Z</time></trkpt>
<trkpt lat="49.1410362" lon="2.6736343"><ele></ele><time>2025-5-19T12:37:57Z</time></trkpt>
<trkpt lat="49.1411510" lon="2.6734158"><ele></ele><time>2025-5-19T12:38:0Z</time></trkpt>
<trkpt lat="49.1412810" lon="2.6732179"><ele></ele><time>2025-5-19T12:38:3Z</time></trkpt>
<trkpt lat="49.1414099" lon="2.6729990"><ele></ele><time>2025-5-19T12:38:6Z</time></trkpt>
<trkpt lat="49.1415535" lon="2.6727643"><ele></ele><time>2025-5-19T12:38:9Z</time></trkpt>
<trkpt lat="49.1416879" lon="2.6725550"><ele></ele><time>2025-5-19T12:38:12Z</time></trkpt>
<trkpt lat="49.1418175" lon="2.6723424"><ele></ele><time>2025-5-19T12:38:15Z</time></trkpt>
<trkpt lat="49.1419583" lon="2.6721141"><ele></ele><time>2025-5-19T12:38:18Z</time></trkpt>
<trkpt lat="49.1421020" lon="2.6719446"><ele></ele><time>2025-5-19T12:38:21Z</time></trkpt>
<trkpt lat="49.1422476" lon="2.6716965"><ele></ele><time>2025-5-19T12:38:24Z</time></trkpt>
<trkpt lat="49.1423801" lon="2.6715019"><ele></ele><time>2025-5-19T12:38:27Z</time></trkpt>
<trkpt lat="49.1425248" lon="2.6712758"><ele></ele><time>2025-5-19T12:38:30Z</time></trkpt>
<trkpt lat="49.1426407" lon="2.6710519"><ele></ele><time>2025-5-19T12:38:33Z</time></trkpt>
<trkpt lat="49.1427819" lon="2.6708205"><ele></ele><time>2025-5-19T12:38:36Z</time></trkpt>
<trkpt lat="49.1429099" lon="2.6705738"><ele></ele><time>2025-5-19T12:38:39Z</time></trkpt>
<trkpt lat="49.1430561" lon="2.6703572"><ele></ele><time>2025-5-19T12:38:42Z</time></trkpt>
<trkpt lat="49.1432232" lon="2.6701400"><ele></ele><time>2025-5-19T12:38:45Z</time></trkpt>
<trkpt lat="49.1433755" lon="2.6698806"><ele></ele><time>2025-5-19T12:38:48Z</time></trkpt>
<trkpt lat="49.1434998" lon="2.6696342"><ele></ele><time>2025-5-19T12:38:51Z</time></trkpt>
<trkpt lat="49.1436688" lon="2.6695049"><ele></ele><time>2025-5-19T12:38:54Z</time></trkpt>
<trkpt lat="49.1438536" lon="2.6696415"><ele></ele><time>2025-5-19T12:38:57Z</time></trkpt>
<trkpt lat="49.1440137" lon="2.6698162"><ele></ele><time>2025-5-19T12:39:0Z</time></trkpt>
<trkpt lat="49.1441804" lon="2.6700057"><ele></ele><time>2025-5-19T12:39:3Z</time></trkpt>
<trkpt lat="49.1443544" lon="2.6701465"><ele></ele><time>2025-5-19T12:39:6Z</time></trkpt>
<trkpt lat="49.1445174" lon="2.6702914"><ele></ele><time>2025-5-19T12:39:9Z</time></trkpt>
<trkpt lat="49.1446233" lon="2.6705251"><ele></ele><time>2025-5-19T12:39:12Z</time></trkpt>
<trkpt lat="49.1447886" lon="2.6707321"><ele></ele><time>2025-5-19T12:39:15Z</time></trkpt>
<trkpt lat="49.1449415" lon="2.6709458"><ele></ele><time>2025-5-19T12:39:18Z</time></trkpt>
<trkpt lat="49.1451072" lon="2.6710840"><ele></ele><time>2025-5-19T12:39:21Z</time></trkpt>
<trkpt lat="49.1452198" lon="2.6713172"><ele></ele><time>2025-5-19T12:39:24Z</time></trkpt>
<trkpt lat="49.1453904" lon="2.6714424"><ele></ele><time>2025-5-19T12:39:27Z</time></trkpt>
<trkpt lat="49.1455800" lon="2.6715090"><ele></ele><time>2025-5-19T12:39:30Z</time></trkpt>
<trkpt lat="49.1457516" lon="2.6714125"><ele></ele><time>2025-5-19T12:39:33Z</time></trkpt>
<trkpt lat="49.1459243" lon="2.6712510"><ele></ele><time>2025-5-19T12:39:36Z</time></trkpt>
<trkpt lat="49.1461821" lon="2.6710984"><ele></ele><time>2025-5-19T12:39:39Z</time></trkpt>
<trkpt lat="49.1463567" lon="2.6712873"><ele></ele><time>2025-5-19T12:39:42Z</time></trkpt>
<trkpt lat="49.1465921" lon="2.6714049"><ele></ele><time>2025-5-19T12:39:45Z</time></trkpt>
<trkpt lat="49.1468213" lon="2.6715170"><ele></ele><time>2025-5-19T12:39:48Z</time></trkpt>
<trkpt lat="49.1469495" lon="2.6717146"><ele></ele><time>2025-5-19T12:39:51Z</time></trkpt>
<trkpt lat="49.1470923" lon="2.6719540"><ele></ele><time>2025-5-19T12:39:54Z</time></trkpt>
<trkpt lat="49.1472903" lon="2.6721346"><ele></ele><time>2025-5-19T12:39:57Z</time></trkpt>
<trkpt lat="49.1474451" lon="2.6723697"><ele></ele><time>2025-5-19T12:40:0Z</time></trkpt>
<trkpt lat="49.1476184" lon="2.6725344"><ele></ele><time>2025-5-19T12:40:3Z</time></trkpt>
<trkpt lat="49.1477775" lon="2.6726787"><ele></ele><time>2025-5-19T12:40:6Z</time></trkpt>
<trkpt lat="49.1479600" lon="2.6726190"><ele></ele><time>2025-5-19T12:40:9Z</time></trkpt>
<trkpt lat="49.1481514" lon="2.6725354"><ele></ele><time>2025-5-19T12:40:12Z</time></trkpt>
<trkpt lat="49.1483536" lon="2.6724656"><ele></ele><time>2025-5-19T12:40:15Z</time></trkpt>
<trkpt lat="49.1485479" lon="2.6724460"><ele></ele><time>2025-5-19T12:40:18Z</time></trkpt>
<trkpt lat="49.1487446" lon="2.6724511"><ele></ele><time>2025-5-19T12:40:21Z</time></trkpt>
<trkpt lat="49.1488025" lon="2.6721851"><ele></ele><time>2025-5-19T12:40:24Z</time></trkpt>
<trkpt lat="49.1488426" lon="2.6719088"><ele></ele><time>2025-5-19T12:40:27Z</time></trkpt>
<trkpt lat="49.1488526" lon="2.6716254"><ele></ele><time>2025-5-19T12:40:30Z</time></trkpt>
<trkpt lat="49.1488731" lon="2.6712840"><ele></ele><time>2025-5-19T12:40:33Z</time></trkpt>
<trkpt lat="49.1488978" lon="2.6709732"><ele></ele><time>2025-5-19T12:40:36Z</time></trkpt>
<trkpt lat="49.1489300" lon="2.6706659"><ele></ele><time>2025-5-19T12:40:39Z</time></trkpt>
<trkpt lat="49.1489517" lon="2.6703569"><ele></ele><time>2025-5-19T12:40:42Z</time></trkpt>
<trkpt lat="49.1489762" lon="2.6700492"><ele></ele><time>2025-5-19T12:40:45Z</time></trkpt>
<trkpt lat="49.1490033" lon="2.6697220"><ele></ele><time>2025-5-19T12:40:48Z</time></trkpt>
<trkpt lat="49.1490291" lon="2.6694287"><ele></ele><time>2025-5-19T12:40:51Z</time></trkpt>
<trkpt lat="49.1490520" lon="2.6691007"><ele></ele><time>2025-5-19T12:40:54Z</time></trkpt>
<trkpt lat="49.1490847" lon="2.6687747"><ele></ele><time>2025-5-19T12:40:57Z</time></trkpt>
<trkpt lat="49.1491175" lon="2.6684543"><ele></ele><time>2025-5-19T12:41:0Z</time></trkpt>
<trkpt lat="49.1491405" lon="2.6681308"><ele></ele><time>2025-5-19T12:41:3Z</time></trkpt>
<trkpt lat="49.1491743" lon="2.6677947"><ele></ele><time>2025-5-19T12:41:6Z</time></trkpt>
<trkpt lat="49.1492006" lon="2.6675038"><ele></ele><time>2025-5-19T12:41:9Z</time></trkpt>
<trkpt lat="49.1492259" lon="2.6672209"><ele></ele><time>2025-5-19T12:41:12Z</time></trkpt>
<trkpt lat="49.1492450" lon="2.6669443"><ele></ele><time>2025-5-19T12:41:15Z</time></trkpt>
<trkpt lat="49.1492698" lon="2.6666671"><ele></ele><time>2025-5-19T12:41:18Z</time></trkpt>
<trkpt lat="49.1492998" lon="2.6663691"><ele></ele><time>2025-5-19T12:41:21Z</time></trkpt>
<trkpt lat="49.1493280" lon="2.6660560"><ele></ele><time>2025-5-19T12:41:24Z</time></trkpt>
<trkpt lat="49.1493557" lon="2.6657428"><ele></ele><time>2025-5-19T12:41:27Z</time></trkpt>
<trkpt lat="49.1493851" lon="2.6654571"><ele></ele><time>2025-5-19T12:41:30Z</time></trkpt>
<trkpt lat="49.1494061" lon="2.6651398"><ele></ele><time>2025-5-19T12:41:33Z</time></trkpt>
<trkpt lat="49.1494296" lon="2.6648246"><ele></ele><time>2025-5-19T12:41:36Z</time></trkpt>
<trkpt lat="49.1494590" lon="2.6645239"><ele></ele><time>2025-5-19T12:41:39Z</time></trkpt>
<trkpt lat="49.1494974" lon="2.6642005"><ele></ele><time>2025-5-19T12:41:42Z</time></trkpt>
<trkpt lat="49.1495220" lon="2.6638700"><ele></ele><time>2025-5-19T12:41:45Z</time></trkpt>
<trkpt lat="49.1495439" lon="2.6635895"><ele></ele><time>2025-5-19T12:41:48Z</time></trkpt>
<trkpt lat="49.1495814" lon="2.6632249"><ele></ele><time>2025-5-19T12:41:51Z</time></trkpt>
<trkpt lat="49.1496052" lon="2.6629417"><ele></ele><time>2025-5-19T12:41:54Z</time></trkpt>
<trkpt lat="49.1496271" lon="2.6626580"><ele></ele><time>2025-5-19T12:41:57Z</time></trkpt>
<trkpt lat="49.1496430" lon="2.6623838"><ele></ele><time>2025-5-19T12:42:0Z</time></trkpt>
<trkpt lat="49.1496642" lon="2.6621013"><ele></ele><time>2025-5-19T12:42:3Z</time></trkpt>
<trkpt lat="49.1496924" lon="2.6618219"><ele></ele><time>2025-5-19T12:42:6Z</time></trkpt>
<trkpt lat="49.1497207" lon="2.6615369"><ele></ele><time>2025-5-19T12:42:9Z</time></trkpt>
<trkpt lat="49.1497465" lon="2.6612526"><ele></ele><time>2025-5-19T12:42:12Z</time></trkpt>
<trkpt lat="49.1497751" lon="2.6609059"><ele></ele><time>2025-5-19T12:42:15Z</time></trkpt>
<trkpt lat="49.1498106" lon="2.6605914"><ele></ele><time>2025-5-19T12:42:18Z</time></trkpt>
<trkpt lat="49.1498200" lon="2.6602962"><ele></ele><time>2025-5-19T12:42:21Z</time></trkpt>
<trkpt lat="49.1497958" lon="2.6599615"><ele></ele><time>2025-5-19T12:42:24Z</time></trkpt>
<trkpt lat="49.1498108" lon="2.6596487"><ele></ele><time>2025-5-19T12:42:27Z</time></trkpt>
<trkpt lat="49.1497586" lon="2.6593533"><ele></ele><time>2025-5-19T12:42:30Z</time></trkpt>
<trkpt lat="49.1497090" lon="2.6590429"><ele></ele><time>2025-5-19T12:42:33Z</time></trkpt>
<trkpt lat="49.1496548" lon="2.6587586"><ele></ele><time>2025-5-19T12:42:36Z</time></trkpt>
<trkpt lat="49.1496091" lon="2.6584424"><ele></ele><time>2025-5-19T12:42:39Z</time></trkpt>
<trkpt lat="49.1495546" lon="2.6581744"><ele></ele><time>2025-5-19T12:42:42Z</time></trkpt>
<trkpt lat="49.1495009" lon="2.6578933"><ele></ele><time>2025-5-19T12:42:45Z</time></trkpt>
<trkpt lat="49.1494626" lon="2.6575860"><ele></ele><time>2025-5-19T12:42:48Z</time></trkpt>
<trkpt lat="49.1494258" lon="2.6572845"><ele></ele><time>2025-5-19T12:42:51Z</time></trkpt>
<trkpt lat="49.1493634" lon="2.6570266"><ele></ele><time>2025-5-19T12:42:54Z</time></trkpt>
<trkpt lat="49.1493090" lon="2.6567629"><ele></ele><time>2025-5-19T12:42:57Z</time></trkpt>
<trkpt lat="49.1492678" lon="2.6564929"><ele></ele><time>2025-5-19T12:43:0Z</time></trkpt>
<trkpt lat="49.1492211" lon="2.6561796"><ele></ele><time>2025-5-19T12:43:3Z</time></trkpt>
<trkpt lat="49.1491767" lon="2.6558880"><ele></ele><time>2025-5-19T12:43:6Z</time></trkpt>
<trkpt lat="49.1491341" lon="2.6555972"><ele></ele><time>2025-5-19T12:43:9Z</time></trkpt>
<trkpt lat="49.1490939" lon="2.6552769"><ele></ele><time>2025-5-19T12:43:12Z</time></trkpt>
<trkpt lat="49.1490326" lon="2.6549680"><ele></ele><time>2025-5-19T12:43:15Z</time></trkpt>
<trkpt lat="49.1489733" lon="2.6546664"><ele></ele><time>2025-5-19T12:43:18Z</time></trkpt>
<trkpt lat="49.1489214" lon="2.6543223"><ele></ele><time>2025-5-19T12:43:21Z</time></trkpt>
<trkpt lat="49.1488725" lon="2.6540228"><ele></ele><time>2025-5-19T12:43:24Z</time></trkpt>
<trkpt lat="49.1488838" lon="2.6537421"><ele></ele><time>2025-5-19T12:43:27Z</time></trkpt>
<trkpt lat="49.1488837" lon="2.6534109"><ele></ele><time>2025-5-19T12:43:30Z</time></trkpt>
<trkpt lat="49.1488816" lon="2.6531025"><ele></ele><time>2025-5-19T12:43:33Z</time></trkpt>
<trkpt lat="49.1488419" lon="2.6528290"><ele></ele><time>2025-5-19T12:43:36Z</time></trkpt>
<trkpt lat="49.1487788" lon="2.6525568"><ele></ele><time>2025-5-19T12:43:39Z</time></trkpt>
<trkpt lat="49.1486809" lon="2.6523065"><ele></ele><time>2025-5-19T12:43:42Z</time></trkpt>
<trkpt lat="49.1486285" lon="2.6520272"><ele></ele><time>2025-5-19T12:43:45Z</time></trkpt>
<trkpt lat="49.1485747" lon="2.6517492"><ele></ele><time>2025-5-19T12:43:48Z</time></trkpt>
<trkpt lat="49.1484878" lon="2.6514979"><ele></ele><time>2025-5-19T12:43:51Z</time></trkpt>
<trkpt lat="49.1484258" lon="2.6512383"><ele></ele><time>2025-5-19T12:43:54Z</time></trkpt>
<trkpt lat="49.1483269" lon="2.6509807"><ele></ele><time>2025-5-19T12:43:57Z</time></trkpt>
<trkpt lat="49.1482309" lon="2.6507156"><ele></ele><time>2025-5-19T12:44:0Z</time></trkpt>
<trkpt lat="49.1481170" lon="2.6504729"><ele></ele><time>2025-5-19T12:44:3Z</time></trkpt>
<trkpt lat="49.1479981" lon="2.6502662"><ele></ele><time>2025-5-19T12:44:6Z</time></trkpt>
<trkpt lat="49.1478752" lon="2.6500101"><ele></ele><time>2025-5-19T12:44:9Z</time></trkpt>
<trkpt lat="49.1477145" lon="2.6498329"><ele></ele><time>2025-5-19T12:44:12Z</time></trkpt>
<trkpt lat="49.1474880" lon="2.6498414"><ele></ele><time>2025-5-19T12:44:15Z</time></trkpt>
<trkpt lat="49.1472904" lon="2.6498212"><ele></ele><time>2025-5-19T12:44:18Z</time></trkpt>
<trkpt lat="49.1470861" lon="2.6498086"><ele></ele><time>2025-5-19T12:44:21Z</time></trkpt>
<trkpt lat="49.1468893" lon="2.6497866"><ele></ele><time>2025-5-19T12:44:24Z</time></trkpt>
<trkpt lat="49.1467154" lon="2.6499047"><ele></ele><time>2025-5-19T12:44:27Z</time></trkpt>
<trkpt lat="49.1465020" lon="2.6498388"><ele></ele><time>2025-5-19T12:44:30Z</time></trkpt>
<trkpt lat="49.1463016" lon="2.6497768"><ele></ele><time>2025-5-19T12:44:33Z</time></trkpt>
<trkpt lat="49.1461139" lon="2.6497375"><ele></ele><time>2025-5-19T12:44:36Z</time></trkpt>
<trkpt lat="49.1459028" lon="2.6497901"><ele></ele><time>2025-5-19T12:44:39Z</time></trkpt>
<trkpt lat="49.1457207" lon="2.6498797"><ele></ele><time>2025-5-19T12:44:42Z</time></trkpt>
<trkpt lat="49.1455596" lon="2.6500601"><ele></ele><time>2025-5-19T12:44:45Z</time></trkpt>
<trkpt lat="49.1453862" lon="2.6502064"><ele></ele><time>2025-5-19T12:44:48Z</time></trkpt>
<trkpt lat="49.1451785" lon="2.6502484"><ele></ele><time>2025-5-19T12:44:51Z</time></trkpt>
<trkpt lat="49.1449569" lon="2.6503104"><ele></ele><time>2025-5-19T12:44:54Z</time></trkpt>
<trkpt lat="49.1447315" lon="2.6503904"><ele></ele><time>2025-5-19T12:44:57Z</time></trkpt>
<trkpt lat="49.1445477" lon="2.6502748"><ele></ele><time>2025-5-19T12:45:0Z</time></trkpt>
<trkpt lat="49.1443441" lon="2.6503171"><ele></ele><time>2025-5-19T12:45:3Z</time></trkpt>
<trkpt lat="49.1441669" lon="2.6502047"><ele></ele><time>2025-5-19T12:45:6Z</time></trkpt>
<trkpt lat="49.1439451" lon="2.6501156"><ele></ele><time>2025-5-19T12:45:9Z</time></trkpt>
<trkpt lat="49.1437695" lon="2.6500091"><ele></ele><time>2025-5-19T12:45:12Z</time></trkpt>
<trkpt lat="49.1436706" lon="2.6497677"><ele></ele><time>2025-5-19T12:45:15Z</time></trkpt>
<trkpt lat="49.1437437" lon="2.6494871"><ele></ele><time>2025-5-19T12:45:18Z</time></trkpt>
<trkpt lat="49.1438861" lon="2.6492558"><ele></ele><time>2025-5-19T12:45:21Z</time></trkpt>
<trkpt lat="49.1440016" lon="2.6490304"><ele></ele><time>2025-5-19T12:45:24Z</time></trkpt>
<trkpt lat="49.1441129" lon="2.6487553"><ele></ele><time>2025-5-19T12:45:27Z</time></trkpt>
<trkpt lat="49.1442108" lon="2.6484575"><ele></ele><time>2025-5-19T12:45:30Z</time></trkpt>
<trkpt lat="49.1442792" lon="2.6481644"><ele></ele><time>2025-5-19T12:45:33Z</time></trkpt>
<trkpt lat="49.1443430" lon="2.6478581"><ele></ele><time>2025-5-19T12:45:36Z</time></trkpt>
<trkpt lat="49.1443877" lon="2.6475687"><ele></ele><time>2025-5-19T12:45:39Z</time></trkpt>
<trkpt lat="49.1444821" lon="2.6472504"><ele></ele><time>2025-5-19T12:45:42Z</time></trkpt>
<trkpt lat="49.1445848" lon="2.6470231"><ele></ele><time>2025-5-19T12:45:45Z</time></trkpt>
<trkpt lat="49.1447149" lon="2.6468329"><ele></ele><time>2025-5-19T12:45:48Z</time></trkpt>
<trkpt lat="49.1449039" lon="2.6466522"><ele></ele><time>2025-5-19T12:45:51Z</time></trkpt>
<trkpt lat="49.1450444" lon="2.6464702"><ele></ele><time>2025-5-19T12:45:54Z</time></trkpt>
<trkpt lat="49.1452175" lon="2.6462753"><ele></ele><time>2025-5-19T12:45:57Z</time></trkpt>
<trkpt lat="49.1454073" lon="2.6460889"><ele></ele><time>2025-5-19T12:46:0Z</time></trkpt>
<trkpt lat="49.1455660" lon="2.6459060"><ele></ele><time>2025-5-19T12:46:3Z</time></trkpt>
<trkpt lat="49.1456861" lon="2.6456747"><ele></ele><time>2025-5-19T12:46:6Z</time></trkpt>
<trkpt lat="49.1457295" lon="2.6453569"><ele></ele><time>2025-5-19T12:46:9Z</time></trkpt>
<trkpt lat="49.1457230" lon="2.6450617"><ele></ele><time>2025-5-19T12:46:12Z</time></trkpt>
<trkpt lat="49.1457458" lon="2.6447653"><ele></ele><time>2025-5-19T12:46:15Z</time></trkpt>
<trkpt lat="49.1458770" lon="2.6445159"><ele></ele><time>2025-5-19T12:46:18Z</time></trkpt>
<trkpt lat="49.1460275" lon="2.6443407"><ele></ele><time>2025-5-19T12:46:21Z</time></trkpt>
<trkpt lat="49.1461799" lon="2.6441744"><ele></ele><time>2025-5-19T12:46:24Z</time></trkpt>
<trkpt lat="49.1463304" lon="2.6439894"><ele></ele><time>2025-5-19T12:46:27Z</time></trkpt>
<trkpt lat="49.1464704" lon="2.6438109"><ele></ele><time>2025-5-19T12:46:30Z</time></trkpt>
<trkpt lat="49.1466456" lon="2.6437195"><ele></ele><time>2025-5-19T12:46:33Z</time></trkpt>
<trkpt lat="49.1468703" lon="2.6438136"><ele></ele><time>2025-5-19T12:46:36Z</time></trkpt>
<trkpt lat="49.1470303" lon="2.6440016"><ele></ele><time>2025-5-19T12:46:39Z</time></trkpt>
<trkpt lat="49.1471877" lon="2.6438450"><ele></ele><time>2025-5-19T12:46:42Z</time></trkpt>
<trkpt lat="49.1472270" lon="2.6435444"><ele></ele><time>2025-5-19T12:46:45Z</time></trkpt>
<trkpt lat="49.1472851" lon="2.6432367"><ele></ele><time>2025-5-19T12:46:48Z</time></trkpt>
<trkpt lat="49.1473170" lon="2.6429452"><ele></ele><time>2025-5-19T12:46:51Z</time></trkpt>
<trkpt lat="49.1473372" lon="2.6426714"><ele></ele><time>2025-5-19T12:46:54Z</time></trkpt>
<trkpt lat="49.1473623" lon="2.6423761"><ele></ele><time>2025-5-19T12:46:57Z</time></trkpt>
<trkpt lat="49.1474081" lon="2.6420975"><ele></ele><time>2025-5-19T12:47:0Z</time></trkpt>
<trkpt lat="49.1474371" lon="2.6418026"><ele></ele><time>2025-5-19T12:47:3Z</time></trkpt>
<trkpt lat="49.1474940" lon="2.6415121"><ele></ele><time>2025-5-19T12:47:6Z</time></trkpt>
<trkpt lat="49.1475128" lon="2.6412249"><ele></ele><time>2025-5-19T12:47:9Z</time></trkpt>
<trkpt lat="49.1475556" lon="2.6409535"><ele></ele><time>2025-5-19T12:47:12Z</time></trkpt>
<trkpt lat="49.1475875" lon="2.6406655"><ele></ele><time>2025-5-19T12:47:15Z</time></trkpt>
<trkpt lat="49.1476265" lon="2.6403715"><ele></ele><time>2025-5-19T12:47:18Z</time></trkpt>
<trkpt lat="49.1476364" lon="2.6400925"><ele></ele><time>2025-5-19T12:47:21Z</time></trkpt>
<trkpt lat="49.1476776" lon="2.6397995"><ele></ele><time>2025-5-19T12:47:24Z</time></trkpt>
<trkpt lat="49.1477248" lon="2.6394642"><ele></ele><time>2025-5-19T12:47:27Z</time></trkpt>
<trkpt lat="49.1477521" lon="2.6391273"><ele></ele><time>2025-5-19T12:47:30Z</time></trkpt>
<trkpt lat="49.1477961" lon="2.6387881"><ele></ele><time>2025-5-19T12:47:33Z</time></trkpt>
<trkpt lat="49.1478160" lon="2.6384999"><ele></ele><time>2025-5-19T12:47:36Z</time></trkpt>
<trkpt lat="49.1479017" lon="2.6382205"><ele></ele><time>2025-5-19T12:47:39Z</time></trkpt>
<trkpt lat="49.1479369" lon="2.6379288"><ele></ele><time>2025-5-19T12:47:42Z</time></trkpt>
<trkpt lat="49.1479770" lon="2.6376337"><ele></ele><time>2025-5-19T12:47:45Z</time></trkpt>
<trkpt lat="49.1480303" lon="2.6373382"><ele></ele><time>2025-5-19T12:47:48Z</time></trkpt>
<trkpt lat="49.1480439" lon="2.6370035"><ele></ele><time>2025-5-19T12:47:51Z</time></trkpt>
<trkpt lat="49.1480745" lon="2.6366479"><ele></ele><time>2025-5-19T12:47:54Z</time></trkpt>
<trkpt lat="49.1481041" lon="2.6362998"><ele></ele><time>2025-5-19T12:47:57Z</time></trkpt>
<trkpt lat="49.1481552" lon="2.6359998"><ele></ele><time>2025-5-19T12:48:0Z</time></trkpt>
<trkpt lat="49.1480092" lon="2.6358332"><ele></ele><time>2025-5-19T12:48:3Z</time></trkpt>
<trkpt lat="49.1478337" lon="2.6356761"><ele></ele><time>2025-5-19T12:48:6Z</time></trkpt>
<trkpt lat="49.1476689" lon="2.6355416"><ele></ele><time>2025-5-19T12:48:9Z</time></trkpt>
<trkpt lat="49.1474923" lon="2.6353272"><ele></ele><time>2025-5-19T12:48:12Z</time></trkpt>
<trkpt lat="49.1473069" lon="2.6351738"><ele></ele><time>2025-5-19T12:48:15Z</time></trkpt>
<trkpt lat="49.1471110" lon="2.6349904"><ele></ele><time>2025-5-19T12:48:18Z</time></trkpt>
<trkpt lat="49.1469133" lon="2.6348254"><ele></ele><time>2025-5-19T12:48:21Z</time></trkpt>
<trkpt lat="49.1467321" lon="2.6346186"><ele></ele><time>2025-5-19T12:48:24Z</time></trkpt>
<trkpt lat="49.1465706" lon="2.6344920"><ele></ele><time>2025-5-19T12:48:27Z</time></trkpt>
<trkpt lat="49.1464002" lon="2.6343645"><ele></ele><time>2025-5-19T12:48:30Z</time></trkpt>
<trkpt lat="49.1462312" lon="2.6342422"><ele></ele><time>2025-5-19T12:48:33Z</time></trkpt>
<trkpt lat="49.1460355" lon="2.6340723"><ele></ele><time>2025-5-19T12:48:36Z</time></trkpt>
<trkpt lat="49.1458794" lon="2.6339341"><ele></ele><time>2025-5-19T12:48:39Z</time></trkpt>
<trkpt lat="49.1457192" lon="2.6337968"><ele></ele><time>2025-5-19T12:48:42Z</time></trkpt>
<trkpt lat="49.1455541" lon="2.6336771"><ele></ele><time>2025-5-19T12:48:45Z</time></trkpt>
<trkpt lat="49.1453807" lon="2.6335402"><ele></ele><time>2025-5-19T12:48:48Z</time></trkpt>
<trkpt lat="49.1451778" lon="2.6333840"><ele></ele><time>2025-5-19T12:48:51Z</time></trkpt>
<trkpt lat="49.1449931" lon="2.6332459"><ele></ele><time>2025-5-19T12:48:54Z</time></trkpt>
<trkpt lat="49.1448408" lon="2.6330808"><ele></ele><time>2025-5-19T12:48:57Z</time></trkpt>
<trkpt lat="49.1446712" lon="2.6329375"><ele></ele><time>2025-5-19T12:49:0Z</time></trkpt>
<trkpt lat="49.1444828" lon="2.6328169"><ele></ele><time>2025-5-19T12:49:3Z</time></trkpt>
<trkpt lat="49.1443357" lon="2.6326376"><ele></ele><time>2025-5-19T12:49:6Z</time></trkpt>
<trkpt lat="49.1443628" lon="2.6323493"><ele></ele><time>2025-5-19T12:49:9Z</time></trkpt>
<trkpt lat="49.1443851" lon="2.6320345"><ele></ele><time>2025-5-19T12:49:12Z</time></trkpt>
<trkpt lat="49.1443518" lon="2.6316964"><ele></ele><time>2025-5-19T12:49:15Z</time></trkpt>
<trkpt lat="49.1443478" lon="2.6314048"><ele></ele><time>2025-5-19T12:49:18Z</time></trkpt>
<trkpt lat="49.1443564" lon="2.6311174"><ele></ele><time>2025-5-19T12:49:21Z</time></trkpt>
<trkpt lat="49.1443697" lon="2.6307827"><ele></ele><time>2025-5-19T12:49:24Z</time></trkpt>
<trkpt lat="49.1443557" lon="2.6304924"><ele></ele><time>2025-5-19T12:49:27Z</time></trkpt>
<trkpt lat="49.1443376" lon="2.6302133"><ele></ele><time>2025-5-19T12:49:30Z</time></trkpt>
<trkpt lat="49.1443361" lon="2.6298702"><ele></ele><time>2025-5-19T12:49:33Z</time></trkpt>
<trkpt lat="49.1443312" lon="2.6295362"><ele></ele><time>2025-5-19T12:49:36Z</time></trkpt>
<trkpt lat="49.1441643" lon="2.6296512"><ele></ele><time>2025-5-19T12:49:39Z</time></trkpt>
<trkpt lat="49.1439573" lon="2.6297713"><ele></ele><time>2025-5-19T12:49:42Z</time></trkpt>
<trkpt lat="49.1437977" lon="2.6299418"><ele></ele><time>2025-5-19T12:49:45Z</time></trkpt>
<trkpt lat="49.1435719" lon="2.6300827"><ele></ele><time>2025-5-19T12:49:48Z</time></trkpt>
<trkpt lat="49.1433664" lon="2.6302171"><ele></ele><time>2025-5-19T12:49:51Z</time></trkpt>
<trkpt lat="49.1432017" lon="2.6303601"><ele></ele><time>2025-5-19T12:49:54Z</time></trkpt>
<trkpt lat="49.1430063" lon="2.6305193"><ele></ele><time>2025-5-19T12:49:57Z</time></trkpt>
<trkpt lat="49.1428283" lon="2.6306488"><ele></ele><time>2025-5-19T12:50:0Z</time></trkpt>
<trkpt lat="49.1426425" lon="2.6306879"><ele></ele><time>2025-5-19T12:50:3Z</time></trkpt>
<trkpt lat="49.1424519" lon="2.6306896"><ele></ele><time>2025-5-19T12:50:6Z</time></trkpt>
<trkpt lat="49.1422471" lon="2.6307425"><ele></ele><time>2025-5-19T12:50:9Z</time></trkpt>
<trkpt lat="49.1420474" lon="2.6307912"><ele></ele><time>2025-5-19T12:50:12Z</time></trkpt>
<trkpt lat="49.1418503" lon="2.6306545"><ele></ele><time>2025-5-19T12:50:15Z</time></trkpt>
<trkpt lat="49.1416724" lon="2.6304511"><ele></ele><time>2025-5-19T12:50:18Z</time></trkpt>
<trkpt lat="49.1415370" lon="2.6302454"><ele></ele><time>2025-5-19T12:50:21Z</time></trkpt>
<trkpt lat="49.1413788" lon="2.6300882"><ele></ele><time>2025-5-19T12:50:24Z</time></trkpt>
<trkpt lat="49.1412059" lon="2.6299151"><ele></ele><time>2025-5-19T12:50:27Z</time></trkpt>
<trkpt lat="49.1410487" lon="2.6297198"><ele></ele><time>2025-5-19T12:50:30Z</time></trkpt>
<trkpt lat="49.1408790" lon="2.6295337"><ele></ele><time>2025-5-19T12:50:33Z</time></trkpt>
<trkpt lat="49.1407127" lon="2.6293619"><ele></ele><time>2025-5-19T12:50:36Z</time></trkpt>
<trkpt lat="49.1405664" lon="2.6292001"><ele></ele><time>2025-5-19T12:50:39Z</time></trkpt>
<trkpt lat="49.1404265" lon="2.6290241"><ele></ele><time>2025-5-19T12:50:42Z</time></trkpt>
<trkpt lat="49.1402505" lon="2.6288178"><ele></ele><time>2025-5-19T12:50:45Z</time></trkpt>
<trkpt lat="49.1401083" lon="2.6286491"><ele></ele><time>2025-5-19T12:50:48Z</time></trkpt>
<trkpt lat="49.1399505" lon="2.6284695"><ele></ele><time>2025-5-19T12:50:51Z</time></trkpt>
<trkpt lat="49.1397747" lon="2.6282775"><ele></ele><time>2025-5-19T12:50:54Z</time></trkpt>
<trkpt lat="49.1396035" lon="2.6280952"><ele></ele><time>2025-5-19T12:50:57Z</time></trkpt>
<trkpt lat="49.1394364" lon="2.6279031"><ele></ele><time>2025-5-19T12:51:0Z</time></trkpt>
<trkpt lat="49.1393255" lon="2.6276527"><ele></ele><time>2025-5-19T12:51:3Z</time></trkpt>
<trkpt lat="49.1392099" lon="2.6274018"><ele></ele><time>2025-5-19T12:51:6Z</time></trkpt>
<trkpt lat="49.1391069" lon="2.6271349"><ele></ele><time>2025-5-19T12:51:9Z</time></trkpt>
<trkpt lat="49.1389878" lon="2.6268736"><ele></ele><time>2025-5-19T12:51:12Z</time></trkpt>
<trkpt lat="49.1388729" lon="2.6266020"><ele></ele><time>2025-5-19T12:51:15Z</time></trkpt>
<trkpt lat="49.1387460" lon="2.6263705"><ele></ele><time>2025-5-19T12:51:18Z</time></trkpt>
<trkpt lat="49.1386378" lon="2.6261044"><ele></ele><time>2025-5-19T12:51:21Z</time></trkpt>
<trkpt lat="49.1385252" lon="2.6257939"><ele></ele><time>2025-5-19T12:51:24Z</time></trkpt>
<trkpt lat="49.1384799" lon="2.6255160"><ele></ele><time>2025-5-19T12:51:27Z</time></trkpt>
<trkpt lat="49.1384659" lon="2.6252289"><ele></ele><time>2025-5-19T12:51:30Z</time></trkpt>
<trkpt lat="49.1384932" lon="2.6249178"><ele></ele><time>2025-5-19T12:51:33Z</time></trkpt>
<trkpt lat="49.1384971" lon="2.6246194"><ele></ele><time>2025-5-19T12:51:36Z</time></trkpt>
<trkpt lat="49.1384890" lon="2.6243328"><ele></ele><time>2025-5-19T12:51:39Z</time></trkpt>
<trkpt lat="49.1383316" lon="2.6245042"><ele></ele><time>2025-5-19T12:51:42Z</time></trkpt>
<trkpt lat="49.1381797" lon="2.6247387"><ele></ele><time>2025-5-19T12:51:45Z</time></trkpt>
<trkpt lat="49.1380208" lon="2.6249421"><ele></ele><time>2025-5-19T12:51:48Z</time></trkpt>
<trkpt lat="49.1378759" lon="2.6251224"><ele></ele><time>2025-5-19T12:51:51Z</time></trkpt>
<trkpt lat="49.1376713" lon="2.6253780"><ele></ele><time>2025-5-19T12:51:54Z</time></trkpt>
<trkpt lat="49.1375291" lon="2.6255786"><ele></ele><time>2025-5-19T12:51:57Z</time></trkpt>
<trkpt lat="49.1373887" lon="2.6257547"><ele></ele><time>2025-5-19T12:52:0Z</time></trkpt>
<trkpt lat="49.1372232" lon="2.6259906"><ele></ele><time>2025-5-19T12:52:3Z</time></trkpt>
<trkpt lat="49.1370997" lon="2.6257586"><ele></ele><time>2025-5-19T12:52:6Z</time></trkpt>
<trkpt lat="49.1370838" lon="2.6254297"><ele></ele><time>2025-5-19T12:52:9Z</time></trkpt>
<trkpt lat="49.1370598" lon="2.6251401"><ele></ele><time>2025-5-19T12:52:12Z</time></trkpt>
<trkpt lat="49.1370327" lon="2.6248438"><ele></ele><time>2025-5-19T12:52:15Z</time></trkpt>
<trkpt lat="49.1370056" lon="2.6245347"><ele></ele><time>2025-5-19T12:52:18Z</time></trkpt>
<trkpt lat="49.1369539" lon="2.6242630"><ele></ele><time>2025-5-19T12:52:21Z</time></trkpt>
<trkpt lat="49.1369547" lon="2.6239823"><ele></ele><time>2025-5-19T12:52:24Z</time></trkpt>
<trkpt lat="49.1369770" lon="2.6236934"><ele></ele><time>2025-5-19T12:52:27Z</time></trkpt>
<trkpt lat="49.1370398" lon="2.6234165"><ele></ele><time>2025-5-19T12:52:30Z</time></trkpt>
<trkpt lat="49.1371013" lon="2.6231549"><ele></ele><time>2025-5-19T12:52:33Z</time></trkpt>
<trkpt lat="49.1370390" lon="2.6234465"><ele></ele><time>2025-5-19T12:52:36Z</time></trkpt>
<trkpt lat="49.1369888" lon="2.6237576"><ele></ele><time>2025-5-19T12:52:39Z</time></trkpt>
<trkpt lat="49.1369580" lon="2.6240890"><ele></ele><time>2025-5-19T12:52:42Z</time></trkpt>
<trkpt lat="49.1369688" lon="2.6244027"><ele></ele><time>2025-5-19T12:52:45Z</time></trkpt>
<trkpt lat="49.1370077" lon="2.6247103"><ele></ele><time>2025-5-19T12:52:48Z</time></trkpt>
<trkpt lat="49.1370543" lon="2.6250420"><ele></ele><time>2025-5-19T12:52:51Z</time></trkpt>
<trkpt lat="49.1370743" lon="2.6254119"><ele></ele><time>2025-5-19T12:52:54Z</time></trkpt>
<trkpt lat="49.1371059" lon="2.6257587"><ele></ele><time>2025-5-19T12:52:57Z</time></trkpt>
<trkpt lat="49.1371437" lon="2.6261036"><ele></ele><time>2025-5-19T12:53:0Z</time></trkpt>
<trkpt lat="49.1371401" lon="2.6263846"><ele></ele><time>2025-5-19T12:53:3Z</time></trkpt>
<trkpt lat="49.1371395" lon="2.6266725"><ele></ele><time>2025-5-19T12:53:6Z</time></trkpt>
<trkpt lat="49.1371592" lon="2.6270132"><ele></ele><time>2025-5-19T12:53:9Z</time></trkpt>
<trkpt lat="49.1371792" lon="2.6273371"><ele></ele><time>2025-5-19T12:53:12Z</time></trkpt>
<trkpt lat="49.1371889" lon="2.6276361"><ele></ele><time>2025-5-19T12:53:15Z</time></trkpt>
<trkpt lat="49.1371884" lon="2.6279290"><ele></ele><time>2025-5-19T12:53:18Z</time></trkpt>
<trkpt lat="49.1372103" lon="2.6282155"><ele></ele><time>2025-5-19T12:53:21Z</time></trkpt>
<trkpt lat="49.1371280" lon="2.6284764"><ele></ele><time>2025-5-19T12:53:24Z</time></trkpt>
<trkpt lat="49.1370172" lon="2.6287210"><ele></ele><time>2025-5-19T12:53:27Z</time></trkpt>
<trkpt lat="49.1369166" lon="2.6289667"><ele></ele><time>2025-5-19T12:53:30Z</time></trkpt>
<trkpt lat="49.1368087" lon="2.6292089"><ele></ele><time>2025-5-19T12:53:33Z</time></trkpt>
<trkpt lat="49.1367012" lon="2.6294695"><ele></ele><time>2025-5-19T12:53:36Z</time></trkpt>
<trkpt lat="49.1366460" lon="2.6297591"><ele></ele><time>2025-5-19T12:53:39Z</time></trkpt>
<trkpt lat="49.1365781" lon="2.6300771"><ele></ele><time>2025-5-19T12:53:42Z</time></trkpt>
<trkpt lat="49.1365172" lon="2.6303968"><ele></ele><time>2025-5-19T12:53:45Z</time></trkpt>
<trkpt lat="49.1364672" lon="2.6306620"><ele></ele><time>2025-5-19T12:53:48Z</time></trkpt>
<trkpt lat="49.1364202" lon="2.6309424"><ele></ele><time>2025-5-19T12:53:51Z</time></trkpt>
<trkpt lat="49.1363722" lon="2.6312078"><ele></ele><time>2025-5-19T12:53:54Z</time></trkpt>
<trkpt lat="49.1362495" lon="2.6314583"><ele></ele><time>2025-5-19T12:53:57Z</time></trkpt>
<trkpt lat="49.1361667" lon="2.6317502"><ele></ele><time>2025-5-19T12:54:0Z</time></trkpt>
<trkpt lat="49.1362928" lon="2.6320564"><ele></ele><time>2025-5-19T12:54:3Z</time></trkpt>
<trkpt lat="49.1363894" lon="2.6323065"><ele></ele><time>2025-5-19T12:54:6Z</time></trkpt>
<trkpt lat="49.1364020" lon="2.6326149"><ele></ele><time>2025-5-19T12:54:9Z</time></trkpt>
<trkpt lat="49.1363193" lon="2.6329317"><ele></ele><time>2025-5-19T12:54:12Z</time></trkpt>
<trkpt lat="49.1362146" lon="2.6331669"><ele></ele><time>2025-5-19T12:54:15Z</time></trkpt>
<trkpt lat="49.1361211" lon="2.6334872"><ele></ele><time>2025-5-19T12:54:18Z</time></trkpt>
<trkpt lat="49.1360173" lon="2.6338099"><ele></ele><time>2025-5-19T12:54:21Z</time></trkpt>
<trkpt lat="49.1358321" lon="2.6339251"><ele></ele><time>2025-5-19T12:54:24Z</time></trkpt>
<trkpt lat="49.1356292" lon="2.6339313"><ele></ele><time>2025-5-19T12:54:27Z</time></trkpt>
<trkpt lat="49.1354772" lon="2.6341209"><ele></ele><time>2025-5-19T12:54:30Z</time></trkpt>
<trkpt lat="49.1354359" lon="2.6344347"><ele></ele><time>2025-5-19T12:54:33Z</time></trkpt>
<trkpt lat="49.1353674" lon="2.6347428"><ele></ele><time>2025-5-19T12:54:36Z</time></trkpt>
<trkpt lat="49.1352359" lon="2.6350387"><ele></ele><time>2025-5-19T12:54:39Z</time></trkpt>
<trkpt lat="49.1351021" lon="2.6353124"><ele></ele><time>2025-5-19T12:54:42Z</time></trkpt>
<trkpt lat="49.1349863" lon="2.6355618"><ele></ele><time>2025-5-19T12:54:45Z</time></trkpt>
<trkpt lat="49.1348502" lon="2.6357791"><ele></ele><time>2025-5-19T12:54:48Z</time></trkpt>
<trkpt lat="49.1347191" lon="2.6360130"><ele></ele><time>2025-5-19T12:54:51Z</time></trkpt>
<trkpt lat="49.1345827" lon="2.6362380"><ele></ele><time>2025-5-19T12:54:54Z</time></trkpt>
<trkpt lat="49.1344558" lon="2.6364615"><ele></ele><time>2025-5-19T12:54:57Z</time></trkpt>
<trkpt lat="49.1343058" lon="2.6366884"><ele></ele><time>2025-5-19T12:55:0Z</time></trkpt>
<trkpt lat="49.1341616" lon="2.6368988"><ele></ele><time>2025-5-19T12:55:3Z</time></trkpt>
<trkpt lat="49.1339843" lon="2.6370598"><ele></ele><time>2025-5-19T12:55:6Z</time></trkpt>
<trkpt lat="49.1338368" lon="2.6372181"><ele></ele><time>2025-5-19T12:55:9Z</time></trkpt>
<trkpt lat="49.1336916" lon="2.6374392"><ele></ele><time>2025-5-19T12:55:12Z</time></trkpt>
<trkpt lat="49.1335636" lon="2.6376810"><ele></ele><time>2025-5-19T12:55:15Z</time></trkpt>
<trkpt lat="49.1334031" lon="2.6378975"><ele></ele><time>2025-5-19T12:55:18Z</time></trkpt>
<trkpt lat="49.1333012" lon="2.6381303"><ele></ele><time>2025-5-19T12:55:21Z</time></trkpt>
<trkpt lat="49.1331724" lon="2.6383426"><ele></ele><time>2025-5-19T12:55:24Z</time></trkpt>
<trkpt lat="49.1333171" lon="2.6380987"><ele></ele><time>2025-5-19T12:55:27Z</time></trkpt>
<trkpt lat="49.1334473" lon="2.6378331"><ele></ele><time>2025-5-19T12:55:30Z</time></trkpt>
<trkpt lat="49.1335692" lon="2.6380762"><ele></ele><time>2025-5-19T12:55:33Z</time></trkpt>
<trkpt lat="49.1336168" lon="2.6383490"><ele></ele><time>2025-5-19T12:55:36Z</time></trkpt>
<trkpt lat="49.1336139" lon="2.6386414"><ele></ele><time>2025-5-19T12:55:39Z</time></trkpt>
<trkpt lat="49.1337123" lon="2.6388961"><ele></ele><time>2025-5-19T12:55:42Z</time></trkpt>
<trkpt lat="49.1337155" lon="2.6392059"><ele></ele><time>2025-5-19T12:55:45Z</time></trkpt>
<trkpt lat="49.1337796" lon="2.6394794"><ele></ele><time>2025-5-19T12:55:48Z</time></trkpt>
<trkpt lat="49.1339187" lon="2.6397108"><ele></ele><time>2025-5-19T12:55:51Z</time></trkpt>
<trkpt lat="49.1340393" lon="2.6399295"><ele></ele><time>2025-5-19T12:55:54Z</time></trkpt>
<trkpt lat="49.1341466" lon="2.6401857"><ele></ele><time>2025-5-19T12:55:57Z</time></trkpt>
<trkpt lat="49.1343077" lon="2.6403217"><ele></ele><time>2025-5-19T12:56:0Z</time></trkpt>
<trkpt lat="49.1343257" lon="2.6406125"><ele></ele><time>2025-5-19T12:56:3Z</time></trkpt>
<trkpt lat="49.1343025" lon="2.6409007"><ele></ele><time>2025-5-19T12:56:6Z</time></trkpt>
<trkpt lat="49.1344395" lon="2.6410998"><ele></ele><time>2025-5-19T12:56:9Z</time></trkpt>
<trkpt lat="49.1342602" lon="2.6411412"><ele></ele><time>2025-5-19T12:56:12Z</time></trkpt>
<trkpt lat="49.1342630" lon="2.6408326"><ele></ele><time>2025-5-19T12:56:15Z</time></trkpt>
<trkpt lat="49.1343554" lon="2.6405701"><ele></ele><time>2025-5-19T12:56:18Z</time></trkpt>
<trkpt lat="49.1345353" lon="2.6405025"><ele></ele><time>2025-5-19T12:56:21Z</time></trkpt>
<trkpt lat="49.1346271" lon="2.6402329"><ele></ele><time>2025-5-19T12:56:24Z</time></trkpt>
<trkpt lat="49.1347377" lon="2.6396202"><ele></ele><time>2025-5-19T12:56:27Z</time></trkpt>
<trkpt lat="49.1347580" lon="2.6392480"><ele></ele><time>2025-5-19T12:56:30Z</time></trkpt>
<trkpt lat="49.1348071" lon="2.6389519"><ele></ele><time>2025-5-19T12:56:33Z</time></trkpt>
<trkpt lat="49.1348329" lon="2.6386164"><ele></ele><time>2025-5-19T12:56:36Z</time></trkpt>
<trkpt lat="49.1348805" lon="2.6382391"><ele></ele><time>2025-5-19T12:56:39Z</time></trkpt>
<trkpt lat="49.1349347" lon="2.6378511"><ele></ele><time>2025-5-19T12:56:42Z</time></trkpt>
<trkpt lat="49.1349662" lon="2.6375732"><ele></ele><time>2025-5-19T12:56:45Z</time></trkpt>
<trkpt lat="49.1350625" lon="2.6373329"><ele></ele><time>2025-5-19T12:56:48Z</time></trkpt>
<trkpt lat="49.1352448" lon="2.6374536"><ele></ele><time>2025-5-19T12:56:51Z</time></trkpt>
<trkpt lat="49.1354290" lon="2.6375682"><ele></ele><time>2025-5-19T12:56:54Z</time></trkpt>
<trkpt lat="49.1356099" lon="2.6376114"><ele></ele><time>2025-5-19T12:56:57Z</time></trkpt>
<trkpt lat="49.1358334" lon="2.6376694"><ele></ele><time>2025-5-19T12:57:0Z</time></trkpt>
<trkpt lat="49.1360528" lon="2.6377399"><ele></ele><time>2025-5-19T12:57:3Z</time></trkpt>
<trkpt lat="49.1362727" lon="2.6377954"><ele></ele><time>2025-5-19T12:57:6Z</time></trkpt>
<trkpt lat="49.1364639" lon="2.6378652"><ele></ele><time>2025-5-19T12:57:9Z</time></trkpt>
<trkpt lat="49.1366607" lon="2.6379226"><ele></ele><time>2025-5-19T12:57:12Z</time></trkpt>
<trkpt lat="49.1368718" lon="2.6379756"><ele></ele><time>2025-5-19T12:57:15Z</time></trkpt>
<trkpt lat="49.1370517" lon="2.6380136"><ele></ele><time>2025-5-19T12:57:18Z</time></trkpt>
<trkpt lat="49.1372759" lon="2.6380224"><ele></ele><time>2025-5-19T12:57:21Z</time></trkpt>
<trkpt lat="49.1374775" lon="2.6380746"><ele></ele><time>2025-5-19T12:57:24Z</time></trkpt>
<trkpt lat="49.1376949" lon="2.6381322"><ele></ele><time>2025-5-19T12:57:27Z</time></trkpt>
<trkpt lat="49.1378744" lon="2.6381605"><ele></ele><time>2025-5-19T12:57:30Z</time></trkpt>
<trkpt lat="49.1380603" lon="2.6382104"><ele></ele><time>2025-5-19T12:57:33Z</time></trkpt>
<trkpt lat="49.1382422" lon="2.6382808"><ele></ele><time>2025-5-19T12:57:36Z</time></trkpt>
<trkpt lat="49.1384403" lon="2.6382381"><ele></ele><time>2025-5-19T12:57:39Z</time></trkpt>
<trkpt lat="49.1386018" lon="2.6380513"><ele></ele><time>2025-5-19T12:57:42Z</time></trkpt>
<trkpt lat="49.1387349" lon="2.6377819"><ele></ele><time>2025-5-19T12:57:45Z</time></trkpt>
<trkpt lat="49.1388449" lon="2.6375555"><ele></ele><time>2025-5-19T12:57:48Z</time></trkpt>
<trkpt lat="49.1389824" lon="2.6372677"><ele></ele><time>2025-5-19T12:57:51Z</time></trkpt>
<trkpt lat="49.1390869" lon="2.6370028"><ele></ele><time>2025-5-19T12:57:54Z</time></trkpt>
<trkpt lat="49.1391893" lon="2.6367381"><ele></ele><time>2025-5-19T12:57:57Z</time></trkpt>
<trkpt lat="49.1392963" lon="2.6364865"><ele></ele><time>2025-5-19T12:58:0Z</time></trkpt>
<trkpt lat="49.1394259" lon="2.6362763"><ele></ele><time>2025-5-19T12:58:3Z</time></trkpt>
<trkpt lat="49.1396062" lon="2.6361278"><ele></ele><time>2025-5-19T12:58:6Z</time></trkpt>
<trkpt lat="49.1398021" lon="2.6362212"><ele></ele><time>2025-5-19T12:58:9Z</time></trkpt>
<trkpt lat="49.1400130" lon="2.6362649"><ele></ele><time>2025-5-19T12:58:12Z</time></trkpt>
<trkpt lat="49.1402125" lon="2.6363608"><ele></ele><time>2025-5-19T12:58:15Z</time></trkpt>
<trkpt lat="49.1404079" lon="2.6363410"><ele></ele><time>2025-5-19T12:58:18Z</time></trkpt>
<trkpt lat="49.1405873" lon="2.6363755"><ele></ele><time>2025-5-19T12:58:21Z</time></trkpt>
<trkpt lat="49.1404025" lon="2.6363491"><ele></ele><time>2025-5-19T12:58:24Z</time></trkpt>
<trkpt lat="49.1402747" lon="2.6365451"><ele></ele><time>2025-5-19T12:58:27Z</time></trkpt>
<trkpt lat="49.1401605" lon="2.6367803"><ele></ele><time>2025-5-19T12:58:30Z</time></trkpt>
<trkpt lat="49.1401599" lon="2.6370752"><ele></ele><time>2025-5-19T12:58:33Z</time></trkpt>
<trkpt lat="49.1402409" lon="2.6373227"><ele></ele><time>2025-5-19T12:58:36Z</time></trkpt>
<trkpt lat="49.1403311" lon="2.6375616"><ele></ele><time>2025-5-19T12:58:39Z</time></trkpt>
<trkpt lat="49.1403501" lon="2.6378560"><ele></ele><time>2025-5-19T12:58:42Z</time></trkpt>
<trkpt lat="49.1403695" lon="2.6381328"><ele></ele><time>2025-5-19T12:58:45Z</time></trkpt>
<trkpt lat="49.1405558" lon="2.6381569"><ele></ele><time>2025-5-19T12:58:48Z</time></trkpt>
<trkpt lat="49.1407618" lon="2.6382080"><ele></ele><time>2025-5-19T12:58:51Z</time></trkpt>
<trkpt lat="49.1409453" lon="2.6382284"><ele></ele><time>2025-5-19T12:58:54Z</time></trkpt>
<trkpt lat="49.1411318" lon="2.6382082"><ele></ele><time>2025-5-19T12:58:57Z</time></trkpt>
<trkpt lat="49.1413316" lon="2.6381958"><ele></ele><time>2025-5-19T12:59:0Z</time></trkpt>
<trkpt lat="49.1415162" lon="2.6381832"><ele></ele><time>2025-5-19T12:59:3Z</time></trkpt>
<trkpt lat="49.1417166" lon="2.6381656"><ele></ele><time>2025-5-19T12:59:6Z</time></trkpt>
<trkpt lat="49.1418468" lon="2.6379445"><ele></ele><time>2025-5-19T12:59:9Z</time></trkpt>
<trkpt lat="49.1418928" lon="2.6376776"><ele></ele><time>2025-5-19T12:59:12Z</time></trkpt>
<trkpt lat="49.1418810" lon="2.6373916"><ele></ele><time>2025-5-19T12:59:15Z</time></trkpt>
<trkpt lat="49.1419094" lon="2.6370615"><ele></ele><time>2025-5-19T12:59:18Z</time></trkpt>
<trkpt lat="49.1418924" lon="2.6367771"><ele></ele><time>2025-5-19T12:59:21Z</time></trkpt>
<trkpt lat="49.1418980" lon="2.6364527"><ele></ele><time>2025-5-19T12:59:24Z</time></trkpt>
<trkpt lat="49.1419152" lon="2.6361672"><ele></ele><time>2025-5-19T12:59:27Z</time></trkpt>
<trkpt lat="49.1418984" lon="2.6358691"><ele></ele><time>2025-5-19T12:59:30Z</time></trkpt>
<trkpt lat="49.1418968" lon="2.6355690"><ele></ele><time>2025-5-19T12:59:33Z</time></trkpt>
<trkpt lat="49.1419145" lon="2.6352557"><ele></ele><time>2025-5-19T12:59:36Z</time></trkpt>
<trkpt lat="49.1419458" lon="2.6349794"><ele></ele><time>2025-5-19T12:59:39Z</time></trkpt>
<trkpt lat="49.1419498" lon="2.6346875"><ele></ele><time>2025-5-19T12:59:42Z</time></trkpt>
<trkpt lat="49.1419342" lon="2.6344072"><ele></ele><time>2025-5-19T12:59:45Z</time></trkpt>
<trkpt lat="49.1419095" lon="2.6340997"><ele></ele><time>2025-5-19T12:59:48Z</time></trkpt>
<trkpt lat="49.1419220" lon="2.6337978"><ele></ele><time>2025-5-19T12:59:51Z</time></trkpt>
<trkpt lat="49.1419560" lon="2.6335245"><ele></ele><time>2025-5-19T12:59:54Z</time></trkpt>
<trkpt lat="49.1419825" lon="2.6331947"><ele></ele><time>2025-5-19T12:59:57Z</time></trkpt>
<trkpt lat="49.1419703" lon="2.6329150"><ele></ele><time>2025-5-19T13:0:0Z</time></trkpt>
<trkpt lat="49.1419622" lon="2.6325768"><ele></ele><time>2025-5-19T13:0:3Z</time></trkpt>
<trkpt lat="49.1419962" lon="2.6322819"><ele></ele><time>2025-5-19T13:0:6Z</time></trkpt>
<trkpt lat="49.1419941" lon="2.6319707"><ele></ele><time>2025-5-19T13:0:9Z</time></trkpt>
<trkpt lat="49.1420127" lon="2.6316776"><ele></ele><time>2025-5-19T13:0:12Z</time></trkpt>
<trkpt lat="49.1419977" lon="2.6313944"><ele></ele><time>2025-5-19T13:0:15Z</time></trkpt>
<trkpt lat="49.1419819" lon="2.6310477"><ele></ele><time>2025-5-19T13:0:18Z</time></trkpt>
<trkpt lat="49.1419634" lon="2.6307667"><ele></ele><time>2025-5-19T13:0:21Z</time></trkpt>
<trkpt lat="49.1421597" lon="2.6307535"><ele></ele><time>2025-5-19T13:0:24Z</time></trkpt>
<trkpt lat="49.1423425" lon="2.6306943"><ele></ele><time>2025-5-19T13:0:27Z</time></trkpt>
<trkpt lat="49.1425198" lon="2.6306120"><ele></ele><time>2025-5-19T13:0:30Z</time></trkpt>
<trkpt lat="49.1427029" lon="2.6306369"><ele></ele><time>2025-5-19T13:0:33Z</time></trkpt>
<trkpt lat="49.1428898" lon="2.6305815"><ele></ele><time>2025-5-19T13:0:36Z</time></trkpt>
<trkpt lat="49.1428031" lon="2.6302925"><ele></ele><time>2025-5-19T13:0:39Z</time></trkpt>
<trkpt lat="49.1427451" lon="2.6300112"><ele></ele><time>2025-5-19T13:0:42Z</time></trkpt>
<trkpt lat="49.1427260" lon="2.6297326"><ele></ele><time>2025-5-19T13:0:45Z</time></trkpt>
<trkpt lat="49.1427122" lon="2.6294149"><ele></ele><time>2025-5-19T13:0:48Z</time></trkpt>
<trkpt lat="49.1426152" lon="2.6291171"><ele></ele><time>2025-5-19T13:0:51Z</time></trkpt>
<trkpt lat="49.1424956" lon="2.6288560"><ele></ele><time>2025-5-19T13:0:54Z</time></trkpt>
<trkpt lat="49.1423878" lon="2.6285890"><ele></ele><time>2025-5-19T13:0:57Z</time></trkpt>
<trkpt lat="49.1422774" lon="2.6282978"><ele></ele><time>2025-5-19T13:1:0Z</time></trkpt>
<trkpt lat="49.1421628" lon="2.6280161"><ele></ele><time>2025-5-19T13:1:3Z</time></trkpt>
<trkpt lat="49.1420699" lon="2.6277717"><ele></ele><time>2025-5-19T13:1:6Z</time></trkpt>
<trkpt lat="49.1421405" lon="2.6275176"><ele></ele><time>2025-5-19T13:1:9Z</time></trkpt>
<trkpt lat="49.1422230" lon="2.6272297"><ele></ele><time>2025-5-19T13:1:12Z</time></trkpt>
<trkpt lat="49.1423193" lon="2.6269670"><ele></ele><time>2025-5-19T13:1:15Z</time></trkpt>
<trkpt lat="49.1424048" lon="2.6266784"><ele></ele><time>2025-5-19T13:1:18Z</time></trkpt>
<trkpt lat="49.1425042" lon="2.6263975"><ele></ele><time>2025-5-19T13:1:21Z</time></trkpt>
<trkpt lat="49.1426228" lon="2.6261258"><ele></ele><time>2025-5-19T13:1:24Z</time></trkpt>
<trkpt lat="49.1427002" lon="2.6258136"><ele></ele><time>2025-5-19T13:1:27Z</time></trkpt>
<trkpt lat="49.1427794" lon="2.6255572"><ele></ele><time>2025-5-19T13:1:30Z</time></trkpt>
<trkpt lat="49.1428720" lon="2.6252971"><ele></ele><time>2025-5-19T13:1:33Z</time></trkpt>
<trkpt lat="49.1429677" lon="2.6250144"><ele></ele><time>2025-5-19T13:1:36Z</time></trkpt>
<trkpt lat="49.1430791" lon="2.6246919"><ele></ele><time>2025-5-19T13:1:39Z</time></trkpt>
<trkpt lat="49.1431744" lon="2.6243858"><ele></ele><time>2025-5-19T13:1:42Z</time></trkpt>
<trkpt lat="49.1432420" lon="2.6240952"><ele></ele><time>2025-5-19T13:1:45Z</time></trkpt>
<trkpt lat="49.1432712" lon="2.6237573"><ele></ele><time>2025-5-19T13:1:48Z</time></trkpt>
<trkpt lat="49.1431737" lon="2.6234586"><ele></ele><time>2025-5-19T13:1:51Z</time></trkpt>
<trkpt lat="49.1430439" lon="2.6231676"><ele></ele><time>2025-5-19T13:1:54Z</time></trkpt>
<trkpt lat="49.1429423" lon="2.6229277"><ele></ele><time>2025-5-19T13:1:57Z</time></trkpt>
<trkpt lat="49.1428216" lon="2.6226312"><ele></ele><time>2025-5-19T13:2:0Z</time></trkpt>
<trkpt lat="49.1427246" lon="2.6223956"><ele></ele><time>2025-5-19T13:2:3Z</time></trkpt>
<trkpt lat="49.1426172" lon="2.6221461"><ele></ele><time>2025-5-19T13:2:6Z</time></trkpt>
<trkpt lat="49.1425159" lon="2.6219174"><ele></ele><time>2025-5-19T13:2:9Z</time></trkpt>
<trkpt lat="49.1423942" lon="2.6216644"><ele></ele><time>2025-5-19T13:2:12Z</time></trkpt>
<trkpt lat="49.1422809" lon="2.6214340"><ele></ele><time>2025-5-19T13:2:15Z</time></trkpt>
<trkpt lat="49.1421205" lon="2.6212489"><ele></ele><time>2025-5-19T13:2:18Z</time></trkpt>
<trkpt lat="49.1420142" lon="2.6209788"><ele></ele><time>2025-5-19T13:2:21Z</time></trkpt>
<trkpt lat="49.1418941" lon="2.6206890"><ele></ele><time>2025-5-19T13:2:24Z</time></trkpt>
<trkpt lat="49.1417909" lon="2.6204604"><ele></ele><time>2025-5-19T13:2:27Z</time></trkpt>
<trkpt lat="49.1417238" lon="2.6201765"><ele></ele><time>2025-5-19T13:2:30Z</time></trkpt>
<trkpt lat="49.1416765" lon="2.6198842"><ele></ele><time>2025-5-19T13:2:33Z</time></trkpt>
<trkpt lat="49.1414679" lon="2.6197512"><ele></ele><time>2025-5-19T13:2:36Z</time></trkpt>
<trkpt lat="49.1412792" lon="2.6198268"><ele></ele><time>2025-5-19T13:2:39Z</time></trkpt>
<trkpt lat="49.1411066" lon="2.6199390"><ele></ele><time>2025-5-19T13:2:42Z</time></trkpt>
<trkpt lat="49.1409197" lon="2.6200246"><ele></ele><time>2025-5-19T13:2:45Z</time></trkpt>
<trkpt lat="49.1407596" lon="2.6201791"><ele></ele><time>2025-5-19T13:2:48Z</time></trkpt>
<trkpt lat="49.1405787" lon="2.6202964"><ele></ele><time>2025-5-19T13:2:51Z</time></trkpt>
<trkpt lat="49.1404003" lon="2.6204333"><ele></ele><time>2025-5-19T13:2:54Z</time></trkpt>
<trkpt lat="49.1402083" lon="2.6205614"><ele></ele><time>2025-5-19T13:2:57Z</time></trkpt>
<trkpt lat="49.1400359" lon="2.6206819"><ele></ele><time>2025-5-19T13:3:0Z</time></trkpt>
<trkpt lat="49.1398775" lon="2.6208276"><ele></ele><time>2025-5-19T13:3:3Z</time></trkpt>
<trkpt lat="49.1397001" lon="2.6209753"><ele></ele><time>2025-5-19T13:3:6Z</time></trkpt>
<trkpt lat="49.1395157" lon="2.6210837"><ele></ele><time>2025-5-19T13:3:9Z</time></trkpt>
<trkpt lat="49.1393327" lon="2.6212231"><ele></ele><time>2025-5-19T13:3:12Z</time></trkpt>
<trkpt lat="49.1391684" lon="2.6213595"><ele></ele><time>2025-5-19T13:3:15Z</time></trkpt>
<trkpt lat="49.1389572" lon="2.6215082"><ele></ele><time>2025-5-19T13:3:18Z</time></trkpt>
<trkpt lat="49.1387778" lon="2.6216439"><ele></ele><time>2025-5-19T13:3:21Z</time></trkpt>
<trkpt lat="49.1386065" lon="2.6215568"><ele></ele><time>2025-5-19T13:3:24Z</time></trkpt>
<trkpt lat="49.1383921" lon="2.6214528"><ele></ele><time>2025-5-19T13:3:27Z</time></trkpt>
<trkpt lat="49.1381900" lon="2.6214133"><ele></ele><time>2025-5-19T13:3:30Z</time></trkpt>
<trkpt lat="49.1380028" lon="2.6213357"><ele></ele><time>2025-5-19T13:3:33Z</time></trkpt>
<trkpt lat="49.1378111" lon="2.6212314"><ele></ele><time>2025-5-19T13:3:36Z</time></trkpt>
<trkpt lat="49.1375838" lon="2.6211575"><ele></ele><time>2025-5-19T13:3:39Z</time></trkpt>
<trkpt lat="49.1374135" lon="2.6210266"><ele></ele><time>2025-5-19T13:3:42Z</time></trkpt>
<trkpt lat="49.1373008" lon="2.6212881"><ele></ele><time>2025-5-19T13:3:45Z</time></trkpt>
<trkpt lat="49.1372480" lon="2.6215599"><ele></ele><time>2025-5-19T13:3:48Z</time></trkpt>
<trkpt lat="49.1372429" lon="2.6218347"><ele></ele><time>2025-5-19T13:3:51Z</time></trkpt>
<trkpt lat="49.1372175" lon="2.6221109"><ele></ele><time>2025-5-19T13:3:54Z</time></trkpt>
<trkpt lat="49.1371930" lon="2.6224007"><ele></ele><time>2025-5-19T13:3:57Z</time></trkpt>
<trkpt lat="49.1371343" lon="2.6227336"><ele></ele><time>2025-5-19T13:4:0Z</time></trkpt>
<trkpt lat="49.1370682" lon="2.6230039"><ele></ele><time>2025-5-19T13:4:3Z</time></trkpt>
<trkpt lat="49.1372041" lon="2.6232457"><ele></ele><time>2025-5-19T13:4:6Z</time></trkpt>
<trkpt lat="49.1373778" lon="2.6233637"><ele></ele><time>2025-5-19T13:4:9Z</time></trkpt>
<trkpt lat="49.1375341" lon="2.6235307"><ele></ele><time>2025-5-19T13:4:12Z</time></trkpt>
<trkpt lat="49.1376742" lon="2.6237145"><ele></ele><time>2025-5-19T13:4:15Z</time></trkpt>
<trkpt lat="49.1378385" lon="2.6238659"><ele></ele><time>2025-5-19T13:4:18Z</time></trkpt>
<trkpt lat="49.1380094" lon="2.6240107"><ele></ele><time>2025-5-19T13:4:21Z</time></trkpt>
<trkpt lat="49.1381767" lon="2.6241811"><ele></ele><time>2025-5-19T13:4:24Z</time></trkpt>
<trkpt lat="49.1383625" lon="2.6242655"><ele></ele><time>2025-5-19T13:4:27Z</time></trkpt>
<trkpt lat="49.1383012" lon="2.6245384"><ele></ele><time>2025-5-19T13:4:30Z</time></trkpt>
<trkpt lat="49.1381262" lon="2.6247895"><ele></ele><time>2025-5-19T13:4:33Z</time></trkpt>
<trkpt lat="49.1379823" lon="2.6249978"><ele></ele><time>2025-5-19T13:4:36Z</time></trkpt>
<trkpt lat="49.1378023" lon="2.6252135"><ele></ele><time>2025-5-19T13:4:39Z</time></trkpt>
<trkpt lat="49.1376613" lon="2.6254241"><ele></ele><time>2025-5-19T13:4:42Z</time></trkpt>
<trkpt lat="49.1375082" lon="2.6256619"><ele></ele><time>2025-5-19T13:4:45Z</time></trkpt>
<trkpt lat="49.1373299" lon="2.6258429"><ele></ele><time>2025-5-19T13:4:48Z</time></trkpt>
<trkpt lat="49.1371874" lon="2.6260298"><ele></ele><time>2025-5-19T13:4:51Z</time></trkpt>
<trkpt lat="49.1371389" lon="2.6263183"><ele></ele><time>2025-5-19T13:4:54Z</time></trkpt>
<trkpt lat="49.1371279" lon="2.6266430"><ele></ele><time>2025-5-19T13:4:57Z</time></trkpt>
<trkpt lat="49.1371318" lon="2.6269556"><ele></ele><time>2025-5-19T13:5:0Z</time></trkpt>
<trkpt lat="49.1371486" lon="2.6272727"><ele></ele><time>2025-5-19T13:5:3Z</time></trkpt>
<trkpt lat="49.1371471" lon="2.6276175"><ele></ele><time>2025-5-19T13:5:6Z</time></trkpt>
<trkpt lat="49.1371484" lon="2.6278927"><ele></ele><time>2025-5-19T13:5:9Z</time></trkpt>
<trkpt lat="49.1371800" lon="2.6281773"><ele></ele><time>2025-5-19T13:5:12Z</time></trkpt>
<trkpt lat="49.1371268" lon="2.6284659"><ele></ele><time>2025-5-19T13:5:15Z</time></trkpt>
<trkpt lat="49.1369908" lon="2.6287565"><ele></ele><time>2025-5-19T13:5:18Z</time></trkpt>
<trkpt lat="49.1369065" lon="2.6290261"><ele></ele><time>2025-5-19T13:5:21Z</time></trkpt>
<trkpt lat="49.1368139" lon="2.6292812"><ele></ele><time>2025-5-19T13:5:24Z</time></trkpt>
<trkpt lat="49.1367006" lon="2.6295633"><ele></ele><time>2025-5-19T13:5:27Z</time></trkpt>
<trkpt lat="49.1366577" lon="2.6298529"><ele></ele><time>2025-5-19T13:5:30Z</time></trkpt>
<trkpt lat="49.1365893" lon="2.6301532"><ele></ele><time>2025-5-19T13:5:33Z</time></trkpt>
<trkpt lat="49.1364970" lon="2.6304881"><ele></ele><time>2025-5-19T13:5:36Z</time></trkpt>
<trkpt lat="49.1364406" lon="2.6308139"><ele></ele><time>2025-5-19T13:5:39Z</time></trkpt>
<trkpt lat="49.1363673" lon="2.6310733"><ele></ele><time>2025-5-19T13:5:42Z</time></trkpt>
<trkpt lat="49.1363311" lon="2.6313541"><ele></ele><time>2025-5-19T13:5:45Z</time></trkpt>
<trkpt lat="49.1363301" lon="2.6316798"><ele></ele><time>2025-5-19T13:5:48Z</time></trkpt>
<trkpt lat="49.1363915" lon="2.6319791"><ele></ele><time>2025-5-19T13:5:51Z</time></trkpt>
<trkpt lat="49.1364447" lon="2.6322961"><ele></ele><time>2025-5-19T13:5:54Z</time></trkpt>
<trkpt lat="49.1363844" lon="2.6325886"><ele></ele><time>2025-5-19T13:5:57Z</time></trkpt>
<trkpt lat="49.1363181" lon="2.6328911"><ele></ele><time>2025-5-19T13:6:0Z</time></trkpt>
<trkpt lat="49.1362004" lon="2.6331830"><ele></ele><time>2025-5-19T13:6:3Z</time></trkpt>
<trkpt lat="49.1361065" lon="2.6334747"><ele></ele><time>2025-5-19T13:6:6Z</time></trkpt>
<trkpt lat="49.1360207" lon="2.6338044"><ele></ele><time>2025-5-19T13:6:9Z</time></trkpt>
<trkpt lat="49.1358203" lon="2.6339061"><ele></ele><time>2025-5-19T13:6:12Z</time></trkpt>
<trkpt lat="49.1356058" lon="2.6339080"><ele></ele><time>2025-5-19T13:6:15Z</time></trkpt>
<trkpt lat="49.1354713" lon="2.6341185"><ele></ele><time>2025-5-19T13:6:18Z</time></trkpt>
<trkpt lat="49.1353980" lon="2.6343788"><ele></ele><time>2025-5-19T13:6:21Z</time></trkpt>
<trkpt lat="49.1353857" lon="2.6347028"><ele></ele><time>2025-5-19T13:6:24Z</time></trkpt>
<trkpt lat="49.1352775" lon="2.6349633"><ele></ele><time>2025-5-19T13:6:27Z</time></trkpt>
<trkpt lat="49.1351332" lon="2.6351820"><ele></ele><time>2025-5-19T13:6:30Z</time></trkpt>
<trkpt lat="49.1350628" lon="2.6354421"><ele></ele><time>2025-5-19T13:6:33Z</time></trkpt>
<trkpt lat="49.1349416" lon="2.6356611"><ele></ele><time>2025-5-19T13:6:36Z</time></trkpt>
<trkpt lat="49.1348046" lon="2.6358734"><ele></ele><time>2025-5-19T13:6:39Z</time></trkpt>
<trkpt lat="49.1346776" lon="2.6361157"><ele></ele><time>2025-5-19T13:6:42Z</time></trkpt>
<trkpt lat="49.1345523" lon="2.6363748"><ele></ele><time>2025-5-19T13:6:45Z</time></trkpt>
<trkpt lat="49.1343906" lon="2.6366095"><ele></ele><time>2025-5-19T13:6:48Z</time></trkpt>
<trkpt lat="49.1342406" lon="2.6368311"><ele></ele><time>2025-5-19T13:6:51Z</time></trkpt>
<trkpt lat="49.1340821" lon="2.6369753"><ele></ele><time>2025-5-19T13:6:54Z</time></trkpt>
<trkpt lat="49.1338893" lon="2.6371879"><ele></ele><time>2025-5-19T13:6:57Z</time></trkpt>
<trkpt lat="49.1337111" lon="2.6374005"><ele></ele><time>2025-5-19T13:7:0Z</time></trkpt>
<trkpt lat="49.1336112" lon="2.6376762"><ele></ele><time>2025-5-19T13:7:3Z</time></trkpt>
<trkpt lat="49.1336009" lon="2.6379724"><ele></ele><time>2025-5-19T13:7:6Z</time></trkpt>
<trkpt lat="49.1336257" lon="2.6383104"><ele></ele><time>2025-5-19T13:7:9Z</time></trkpt>
<trkpt lat="49.1336313" lon="2.6385874"><ele></ele><time>2025-5-19T13:7:12Z</time></trkpt>
<trkpt lat="49.1337001" lon="2.6388624"><ele></ele><time>2025-5-19T13:7:15Z</time></trkpt>
<trkpt lat="49.1336975" lon="2.6391479"><ele></ele><time>2025-5-19T13:7:18Z</time></trkpt>
<trkpt lat="49.1337364" lon="2.6394431"><ele></ele><time>2025-5-19T13:7:21Z</time></trkpt>
<trkpt lat="49.1338643" lon="2.6396552"><ele></ele><time>2025-5-19T13:7:24Z</time></trkpt>
<trkpt lat="49.1340193" lon="2.6398450"><ele></ele><time>2025-5-19T13:7:27Z</time></trkpt>
<trkpt lat="49.1341114" lon="2.6401314"><ele></ele><time>2025-5-19T13:7:30Z</time></trkpt>
<trkpt lat="49.1342630" lon="2.6402983"><ele></ele><time>2025-5-19T13:7:33Z</time></trkpt>
<trkpt lat="49.1342970" lon="2.6405690"><ele></ele><time>2025-5-19T13:7:36Z</time></trkpt>
<trkpt lat="49.1342748" lon="2.6408522"><ele></ele><time>2025-5-19T13:7:39Z</time></trkpt>
<trkpt lat="49.1342345" lon="2.6411352"><ele></ele><time>2025-5-19T13:7:42Z</time></trkpt>
<trkpt lat="49.1341024" lon="2.6413653"><ele></ele><time>2025-5-19T13:7:45Z</time></trkpt>
<trkpt lat="49.1340038" lon="2.6416000"><ele></ele><time>2025-5-19T13:7:48Z</time></trkpt>
<trkpt lat="49.1338862" lon="2.6418435"><ele></ele><time>2025-5-19T13:7:51Z</time></trkpt>
<trkpt lat="49.1338107" lon="2.6421389"><ele></ele><time>2025-5-19T13:7:54Z</time></trkpt>
<trkpt lat="49.1337786" lon="2.6424174"><ele></ele><time>2025-5-19T13:7:57Z</time></trkpt>
<trkpt lat="49.1339369" lon="2.6426452"><ele></ele><time>2025-5-19T13:8:0Z</time></trkpt>
<trkpt lat="49.1340844" lon="2.6428178"><ele></ele><time>2025-5-19T13:8:3Z</time></trkpt>
<trkpt lat="49.1342137" lon="2.6430331"><ele></ele><time>2025-5-19T13:8:6Z</time></trkpt>
<trkpt lat="49.1342849" lon="2.6433049"><ele></ele><time>2025-5-19T13:8:9Z</time></trkpt>
<trkpt lat="49.1343780" lon="2.6435896"><ele></ele><time>2025-5-19T13:8:12Z</time></trkpt>
<trkpt lat="49.1344611" lon="2.6438529"><ele></ele><time>2025-5-19T13:8:15Z</time></trkpt>
<trkpt lat="49.1345009" lon="2.6441257"><ele></ele><time>2025-5-19T13:8:18Z</time></trkpt>
<trkpt lat="49.1345762" lon="2.6444047"><ele></ele><time>2025-5-19T13:8:21Z</time></trkpt>
<trkpt lat="49.1346242" lon="2.6447040"><ele></ele><time>2025-5-19T13:8:24Z</time></trkpt>
<trkpt lat="49.1346639" lon="2.6451206"><ele></ele><time>2025-5-19T13:8:27Z</time></trkpt>
<trkpt lat="49.1347251" lon="2.6454723"><ele></ele><time>2025-5-19T13:8:30Z</time></trkpt>
<trkpt lat="49.1348043" lon="2.6457828"><ele></ele><time>2025-5-19T13:8:33Z</time></trkpt>
<trkpt lat="49.1348187" lon="2.6460807"><ele></ele><time>2025-5-19T13:8:36Z</time></trkpt>
<trkpt lat="49.1346559" lon="2.6464581"><ele></ele><time>2025-5-19T13:8:39Z</time></trkpt>
<trkpt lat="49.1345377" lon="2.6466748"><ele></ele><time>2025-5-19T13:8:42Z</time></trkpt>
<trkpt lat="49.1344082" lon="2.6469356"><ele></ele><time>2025-5-19T13:8:45Z</time></trkpt>
<trkpt lat="49.1342932" lon="2.6471693"><ele></ele><time>2025-5-19T13:8:48Z</time></trkpt>
<trkpt lat="49.1341707" lon="2.6474181"><ele></ele><time>2025-5-19T13:8:51Z</time></trkpt>
<trkpt lat="49.1340449" lon="2.6476360"><ele></ele><time>2025-5-19T13:8:54Z</time></trkpt>
<trkpt lat="49.1339103" lon="2.6479382"><ele></ele><time>2025-5-19T13:8:57Z</time></trkpt>
<trkpt lat="49.1338112" lon="2.6481690"><ele></ele><time>2025-5-19T13:9:0Z</time></trkpt>
<trkpt lat="49.1336854" lon="2.6484630"><ele></ele><time>2025-5-19T13:9:3Z</time></trkpt>
<trkpt lat="49.1335666" lon="2.6487006"><ele></ele><time>2025-5-19T13:9:6Z</time></trkpt>
<trkpt lat="49.1334481" lon="2.6489867"><ele></ele><time>2025-5-19T13:9:9Z</time></trkpt>
<trkpt lat="49.1333148" lon="2.6492487"><ele></ele><time>2025-5-19T13:9:12Z</time></trkpt>
<trkpt lat="49.1331934" lon="2.6495063"><ele></ele><time>2025-5-19T13:9:15Z</time></trkpt>
<trkpt lat="49.1331067" lon="2.6497518"><ele></ele><time>2025-5-19T13:9:18Z</time></trkpt>
<trkpt lat="49.1329635" lon="2.6500266"><ele></ele><time>2025-5-19T13:9:21Z</time></trkpt>
<trkpt lat="49.1328421" lon="2.6503023"><ele></ele><time>2025-5-19T13:9:24Z</time></trkpt>
<trkpt lat="49.1327283" lon="2.6506216"><ele></ele><time>2025-5-19T13:9:27Z</time></trkpt>
<trkpt lat="49.1325921" lon="2.6508936"><ele></ele><time>2025-5-19T13:9:30Z</time></trkpt>
<trkpt lat="49.1324596" lon="2.6511467"><ele></ele><time>2025-5-19T13:9:33Z</time></trkpt>
<trkpt lat="49.1323387" lon="2.6514057"><ele></ele><time>2025-5-19T13:9:36Z</time></trkpt>
<trkpt lat="49.1322093" lon="2.6517211"><ele></ele><time>2025-5-19T13:9:39Z</time></trkpt>
<trkpt lat="49.1320870" lon="2.6519865"><ele></ele><time>2025-5-19T13:9:42Z</time></trkpt>
<trkpt lat="49.1319667" lon="2.6522183"><ele></ele><time>2025-5-19T13:9:45Z</time></trkpt>
<trkpt lat="49.1318408" lon="2.6524692"><ele></ele><time>2025-5-19T13:9:48Z</time></trkpt>
<trkpt lat="49.1317281" lon="2.6527181"><ele></ele><time>2025-5-19T13:9:51Z</time></trkpt>
<trkpt lat="49.1316132" lon="2.6529676"><ele></ele><time>2025-5-19T13:9:54Z</time></trkpt>
<trkpt lat="49.1314824" lon="2.6532214"><ele></ele><time>2025-5-19T13:9:57Z</time></trkpt>
<trkpt lat="49.1313775" lon="2.6534526"><ele></ele><time>2025-5-19T13:10:0Z</time></trkpt>
<trkpt lat="49.1312353" lon="2.6536977"><ele></ele><time>2025-5-19T13:10:3Z</time></trkpt>
<trkpt lat="49.1311159" lon="2.6539416"><ele></ele><time>2025-5-19T13:10:6Z</time></trkpt>
<trkpt lat="49.1309893" lon="2.6542481"><ele></ele><time>2025-5-19T13:10:9Z</time></trkpt>
<trkpt lat="49.1308503" lon="2.6545510"><ele></ele><time>2025-5-19T13:10:12Z</time></trkpt>
<trkpt lat="49.1307417" lon="2.6547927"><ele></ele><time>2025-5-19T13:10:15Z</time></trkpt>
<trkpt lat="49.1306411" lon="2.6550251"><ele></ele><time>2025-5-19T13:10:18Z</time></trkpt>
<trkpt lat="49.1304859" lon="2.6552772"><ele></ele><time>2025-5-19T13:10:21Z</time></trkpt>
<trkpt lat="49.1303951" lon="2.6555237"><ele></ele><time>2025-5-19T13:10:24Z</time></trkpt>
<trkpt lat="49.1302924" lon="2.6557659"><ele></ele><time>2025-5-19T13:10:27Z</time></trkpt>
<trkpt lat="49.1301276" lon="2.6560151"><ele></ele><time>2025-5-19T13:10:30Z</time></trkpt>
<trkpt lat="49.1300413" lon="2.6562591"><ele></ele><time>2025-5-19T13:10:33Z</time></trkpt>
<trkpt lat="49.1299108" lon="2.6565580"><ele></ele><time>2025-5-19T13:10:36Z</time></trkpt>
<trkpt lat="49.1297957" lon="2.6568352"><ele></ele><time>2025-5-19T13:10:39Z</time></trkpt>
<trkpt lat="49.1297328" lon="2.6570990"><ele></ele><time>2025-5-19T13:10:42Z</time></trkpt>
<trkpt lat="49.1296205" lon="2.6573649"><ele></ele><time>2025-5-19T13:10:45Z</time></trkpt>
<trkpt lat="49.1294801" lon="2.6575537"><ele></ele><time>2025-5-19T13:10:48Z</time></trkpt>
<trkpt lat="49.1293168" lon="2.6577160"><ele></ele><time>2025-5-19T13:10:51Z</time></trkpt>
<trkpt lat="49.1291434" lon="2.6578709"><ele></ele><time>2025-5-19T13:10:54Z</time></trkpt>
<trkpt lat="49.1289626" lon="2.6580228"><ele></ele><time>2025-5-19T13:10:57Z</time></trkpt>
<trkpt lat="49.1288010" lon="2.6581485"><ele></ele><time>2025-5-19T13:11:0Z</time></trkpt>
<trkpt lat="49.1286149" lon="2.6583572"><ele></ele><time>2025-5-19T13:11:3Z</time></trkpt>
<trkpt lat="49.1284216" lon="2.6585221"><ele></ele><time>2025-5-19T13:11:6Z</time></trkpt>
<trkpt lat="49.1282679" lon="2.6587015"><ele></ele><time>2025-5-19T13:11:9Z</time></trkpt>
<trkpt lat="49.1281151" lon="2.6589312"><ele></ele><time>2025-5-19T13:11:12Z</time></trkpt>
<trkpt lat="49.1279954" lon="2.6591540"><ele></ele><time>2025-5-19T13:11:15Z</time></trkpt>
<trkpt lat="49.1278663" lon="2.6594272"><ele></ele><time>2025-5-19T13:11:18Z</time></trkpt>
<trkpt lat="49.1277564" lon="2.6596760"><ele></ele><time>2025-5-19T13:11:21Z</time></trkpt>
<trkpt lat="49.1276755" lon="2.6599513"><ele></ele><time>2025-5-19T13:11:24Z</time></trkpt>
<trkpt lat="49.1276502" lon="2.6602269"><ele></ele><time>2025-5-19T13:11:27Z</time></trkpt>
<trkpt lat="49.1276109" lon="2.6605226"><ele></ele><time>2025-5-19T13:11:30Z</time></trkpt>
<trkpt lat="49.1275351" lon="2.6607953"><ele></ele><time>2025-5-19T13:11:33Z</time></trkpt>
<trkpt lat="49.1275727" lon="2.6605151"><ele></ele><time>2025-5-19T13:11:36Z</time></trkpt>
<trkpt lat="49.1276254" lon="2.6602479"><ele></ele><time>2025-5-19T13:11:39Z</time></trkpt>
<trkpt lat="49.1275781" lon="2.6605279"><ele></ele><time>2025-5-19T13:11:42Z</time></trkpt>
<trkpt lat="49.1275312" lon="2.6607948"><ele></ele><time>2025-5-19T13:11:45Z</time></trkpt>
<trkpt lat="49.1274230" lon="2.6610234"><ele></ele><time>2025-5-19T13:11:48Z</time></trkpt>
<trkpt lat="49.1272949" lon="2.6612866"><ele></ele><time>2025-5-19T13:11:51Z</time></trkpt>
<trkpt lat="49.1271700" lon="2.6615184"><ele></ele><time>2025-5-19T13:11:54Z</time></trkpt>
<trkpt lat="49.1270333" lon="2.6617378"><ele></ele><time>2025-5-19T13:11:57Z</time></trkpt>
<trkpt lat="49.1268711" lon="2.6619341"><ele></ele><time>2025-5-19T13:12:0Z</time></trkpt>
<trkpt lat="49.1266856" lon="2.6621030"><ele></ele><time>2025-5-19T13:12:3Z</time></trkpt>
<trkpt lat="49.1265063" lon="2.6622538"><ele></ele><time>2025-5-19T13:12:6Z</time></trkpt>
<trkpt lat="49.1263760" lon="2.6624625"><ele></ele><time>2025-5-19T13:12:9Z</time></trkpt>
<trkpt lat="49.1262771" lon="2.6627409"><ele></ele><time>2025-5-19T13:12:12Z</time></trkpt>
<trkpt lat="49.1261895" lon="2.6630543"><ele></ele><time>2025-5-19T13:12:15Z</time></trkpt>
<trkpt lat="49.1261956" lon="2.6633910"><ele></ele><time>2025-5-19T13:12:18Z</time></trkpt>
<trkpt lat="49.1261993" lon="2.6636847"><ele></ele><time>2025-5-19T13:12:21Z</time></trkpt>
<trkpt lat="49.1261522" lon="2.6639849"><ele></ele><time>2025-5-19T13:12:24Z</time></trkpt>
<trkpt lat="49.1261050" lon="2.6642633"><ele></ele><time>2025-5-19T13:12:27Z</time></trkpt>
<trkpt lat="49.1260185" lon="2.6645665"><ele></ele><time>2025-5-19T13:12:30Z</time></trkpt>
<trkpt lat="49.1259362" lon="2.6649417"><ele></ele><time>2025-5-19T13:12:33Z</time></trkpt>
<trkpt lat="49.1258860" lon="2.6652368"><ele></ele><time>2025-5-19T13:12:36Z</time></trkpt>
<trkpt lat="49.1257958" lon="2.6656078"><ele></ele><time>2025-5-19T13:12:39Z</time></trkpt>
<trkpt lat="49.1256568" lon="2.6658879"><ele></ele><time>2025-5-19T13:12:42Z</time></trkpt>
<trkpt lat="49.1256414" lon="2.6662056"><ele></ele><time>2025-5-19T13:12:45Z</time></trkpt>
<trkpt lat="49.1255382" lon="2.6665139"><ele></ele><time>2025-5-19T13:12:48Z</time></trkpt>
<trkpt lat="49.1254674" lon="2.6667806"><ele></ele><time>2025-5-19T13:12:51Z</time></trkpt>
<trkpt lat="49.1253538" lon="2.6670954"><ele></ele><time>2025-5-19T13:12:54Z</time></trkpt>
<trkpt lat="49.1252717" lon="2.6673436"><ele></ele><time>2025-5-19T13:12:57Z</time></trkpt>
<trkpt lat="49.1253029" lon="2.6676770"><ele></ele><time>2025-5-19T13:13:0Z</time></trkpt>
<trkpt lat="49.1253572" lon="2.6680089"><ele></ele><time>2025-5-19T13:13:3Z</time></trkpt>
<trkpt lat="49.1253923" lon="2.6683578"><ele></ele><time>2025-5-19T13:13:6Z</time></trkpt>
<trkpt lat="49.1254338" lon="2.6687141"><ele></ele><time>2025-5-19T13:13:9Z</time></trkpt>
<trkpt lat="49.1254775" lon="2.6689912"><ele></ele><time>2025-5-19T13:13:12Z</time></trkpt>
<trkpt lat="49.1255279" lon="2.6693071"><ele></ele><time>2025-5-19T13:13:15Z</time></trkpt>
<trkpt lat="49.1255815" lon="2.6695936"><ele></ele><time>2025-5-19T13:13:18Z</time></trkpt>
<trkpt lat="49.1257468" lon="2.6697637"><ele></ele><time>2025-5-19T13:13:21Z</time></trkpt>
<trkpt lat="49.1258927" lon="2.6699427"><ele></ele><time>2025-5-19T13:13:24Z</time></trkpt>
<trkpt lat="49.1260784" lon="2.6701124"><ele></ele><time>2025-5-19T13:13:27Z</time></trkpt>
<trkpt lat="49.1262395" lon="2.6703004"><ele></ele><time>2025-5-19T13:13:30Z</time></trkpt>
<trkpt lat="49.1264402" lon="2.6704013"><ele></ele><time>2025-5-19T13:13:33Z</time></trkpt>
<trkpt lat="49.1266228" lon="2.6706078"><ele></ele><time>2025-5-19T13:13:36Z</time></trkpt>
<trkpt lat="49.1268128" lon="2.6707693"><ele></ele><time>2025-5-19T13:13:39Z</time></trkpt>
<trkpt lat="49.1269670" lon="2.6709241"><ele></ele><time>2025-5-19T13:13:42Z</time></trkpt>
<trkpt lat="49.1271271" lon="2.6710627"><ele></ele><time>2025-5-19T13:13:45Z</time></trkpt>
<trkpt lat="49.1273348" lon="2.6712596"><ele></ele><time>2025-5-19T13:13:48Z</time></trkpt>
<trkpt lat="49.1274917" lon="2.6714297"><ele></ele><time>2025-5-19T13:13:51Z</time></trkpt>
<trkpt lat="49.1276551" lon="2.6716078"><ele></ele><time>2025-5-19T13:13:54Z</time></trkpt>
<trkpt lat="49.1278332" lon="2.6717608"><ele></ele><time>2025-5-19T13:13:57Z</time></trkpt>
<trkpt lat="49.1280135" lon="2.6719651"><ele></ele><time>2025-5-19T13:14:0Z</time></trkpt>
<trkpt lat="49.1280347" lon="2.6722815"><ele></ele><time>2025-5-19T13:14:3Z</time></trkpt>
<trkpt lat="49.1279609" lon="2.6725546"><ele></ele><time>2025-5-19T13:14:6Z</time></trkpt>
<trkpt lat="49.1278959" lon="2.6728242"><ele></ele><time>2025-5-19T13:14:9Z</time></trkpt>
<trkpt lat="49.1278485" lon="2.6730993"><ele></ele><time>2025-5-19T13:14:12Z</time></trkpt>
<trkpt lat="49.1277820" lon="2.6733709"><ele></ele><time>2025-5-19T13:14:15Z</time></trkpt>
<trkpt lat="49.1277473" lon="2.6736549"><ele></ele><time>2025-5-19T13:14:18Z</time></trkpt>
<trkpt lat="49.1277261" lon="2.6739475"><ele></ele><time>2025-5-19T13:14:21Z</time></trkpt>
<trkpt lat="49.1277152" lon="2.6742469"><ele></ele><time>2025-5-19T13:14:24Z</time></trkpt>
<trkpt lat="49.1277501" lon="2.6745480"><ele></ele><time>2025-5-19T13:14:27Z</time></trkpt>
<trkpt lat="49.1278498" lon="2.6748704"><ele></ele><time>2025-5-19T13:14:30Z</time></trkpt>
<trkpt lat="49.1279681" lon="2.6751681"><ele></ele><time>2025-5-19T13:14:33Z</time></trkpt>
<trkpt lat="49.1280473" lon="2.6754222"><ele></ele><time>2025-5-19T13:14:36Z</time></trkpt>
<trkpt lat="49.1281515" lon="2.6756716"><ele></ele><time>2025-5-19T13:14:39Z</time></trkpt>
<trkpt lat="49.1282712" lon="2.6759349"><ele></ele><time>2025-5-19T13:14:42Z</time></trkpt>
<trkpt lat="49.1283688" lon="2.6762744"><ele></ele><time>2025-5-19T13:14:45Z</time></trkpt>
<trkpt lat="49.1284717" lon="2.6765319"><ele></ele><time>2025-5-19T13:14:48Z</time></trkpt>
<trkpt lat="49.1285636" lon="2.6768180"><ele></ele><time>2025-5-19T13:14:51Z</time></trkpt>
<trkpt lat="49.1286851" lon="2.6771102"><ele></ele><time>2025-5-19T13:14:54Z</time></trkpt>
<trkpt lat="49.1288185" lon="2.6773837"><ele></ele><time>2025-5-19T13:14:57Z</time></trkpt>
<trkpt lat="49.1289296" lon="2.6776938"><ele></ele><time>2025-5-19T13:15:0Z</time></trkpt>
<trkpt lat="49.1290599" lon="2.6780138"><ele></ele><time>2025-5-19T13:15:3Z</time></trkpt>
<trkpt lat="49.1291722" lon="2.6783404"><ele></ele><time>2025-5-19T13:15:6Z</time></trkpt>
<trkpt lat="49.1292992" lon="2.6786169"><ele></ele><time>2025-5-19T13:15:9Z</time></trkpt>
<trkpt lat="49.1294057" lon="2.6788739"><ele></ele><time>2025-5-19T13:15:12Z</time></trkpt>
<trkpt lat="49.1295293" lon="2.6791621"><ele></ele><time>2025-5-19T13:15:15Z</time></trkpt>
<trkpt lat="49.1296416" lon="2.6794036"><ele></ele><time>2025-5-19T13:15:18Z</time></trkpt>
<trkpt lat="49.1296842" lon="2.6796943"><ele></ele><time>2025-5-19T13:15:21Z</time></trkpt>
<trkpt lat="49.1296312" lon="2.6799632"><ele></ele><time>2025-5-19T13:15:24Z</time></trkpt>
<trkpt lat="49.1295510" lon="2.6802246"><ele></ele><time>2025-5-19T13:15:27Z</time></trkpt>
<trkpt lat="49.1293831" lon="2.6803716"><ele></ele><time>2025-5-19T13:15:30Z</time></trkpt>
<trkpt lat="49.1292469" lon="2.6805546"><ele></ele><time>2025-5-19T13:15:33Z</time></trkpt>
<trkpt lat="49.1290585" lon="2.6806237"><ele></ele><time>2025-5-19T13:15:36Z</time></trkpt>
<trkpt lat="49.1288406" lon="2.6806424"><ele></ele><time>2025-5-19T13:15:39Z</time></trkpt>
<trkpt lat="49.1286374" lon="2.6806551"><ele></ele><time>2025-5-19T13:15:42Z</time></trkpt>
<trkpt lat="49.1284351" lon="2.6807266"><ele></ele><time>2025-5-19T13:15:45Z</time></trkpt>
<trkpt lat="49.1283045" lon="2.6809618"><ele></ele><time>2025-5-19T13:15:48Z</time></trkpt>
<trkpt lat="49.1282573" lon="2.6812641"><ele></ele><time>2025-5-19T13:15:51Z</time></trkpt>
<trkpt lat="49.1281793" lon="2.6815164"><ele></ele><time>2025-5-19T13:15:54Z</time></trkpt>
<trkpt lat="49.1281387" lon="2.6818217"><ele></ele><time>2025-5-19T13:15:57Z</time></trkpt>
<trkpt lat="49.1281076" lon="2.6821260"><ele></ele><time>2025-5-19T13:16:0Z</time></trkpt>
<trkpt lat="49.1280659" lon="2.6824252"><ele></ele><time>2025-5-19T13:16:3Z</time></trkpt>
<trkpt lat="49.1281030" lon="2.6827137"><ele></ele><time>2025-5-19T13:16:6Z</time></trkpt>
<trkpt lat="49.1280973" lon="2.6830182"><ele></ele><time>2025-5-19T13:16:9Z</time></trkpt>
<trkpt lat="49.1281325" lon="2.6833227"><ele></ele><time>2025-5-19T13:16:12Z</time></trkpt>
<trkpt lat="49.1280936" lon="2.6836652"><ele></ele><time>2025-5-19T13:16:15Z</time></trkpt>
<trkpt lat="49.1280623" lon="2.6840302"><ele></ele><time>2025-5-19T13:16:18Z</time></trkpt>
<trkpt lat="49.1280606" lon="2.6843958"><ele></ele><time>2025-5-19T13:16:21Z</time></trkpt>
<trkpt lat="49.1280662" lon="2.6846949"><ele></ele><time>2025-5-19T13:16:24Z</time></trkpt>
<trkpt lat="49.1280736" lon="2.6849936"><ele></ele><time>2025-5-19T13:16:27Z</time></trkpt>
<trkpt lat="49.1280987" lon="2.6852996"><ele></ele><time>2025-5-19T13:16:30Z</time></trkpt>
<trkpt lat="49.1281918" lon="2.6856061"><ele></ele><time>2025-5-19T13:16:33Z</time></trkpt>
<trkpt lat="49.1282105" lon="2.6859549"><ele></ele><time>2025-5-19T13:16:36Z</time></trkpt>
<trkpt lat="49.1281794" lon="2.6863125"><ele></ele><time>2025-5-19T13:16:39Z</time></trkpt>
<trkpt lat="49.1280885" lon="2.6866460"><ele></ele><time>2025-5-19T13:16:42Z</time></trkpt>
<trkpt lat="49.1280403" lon="2.6869406"><ele></ele><time>2025-5-19T13:16:45Z</time></trkpt>
<trkpt lat="49.1279763" lon="2.6872222"><ele></ele><time>2025-5-19T13:16:48Z</time></trkpt>
<trkpt lat="49.1279053" lon="2.6875165"><ele></ele><time>2025-5-19T13:16:51Z</time></trkpt>
<trkpt lat="49.1278478" lon="2.6877785"><ele></ele><time>2025-5-19T13:16:54Z</time></trkpt>
<trkpt lat="49.1277583" lon="2.6880537"><ele></ele><time>2025-5-19T13:16:57Z</time></trkpt>
<trkpt lat="49.1276718" lon="2.6884034"><ele></ele><time>2025-5-19T13:17:0Z</time></trkpt>
<trkpt lat="49.1275890" lon="2.6887045"><ele></ele><time>2025-5-19T13:17:3Z</time></trkpt>
<trkpt lat="49.1274927" lon="2.6889687"><ele></ele><time>2025-5-19T13:17:6Z</time></trkpt>
<trkpt lat="49.1274526" lon="2.6892517"><ele></ele><time>2025-5-19T13:17:9Z</time></trkpt>
<trkpt lat="49.1273420" lon="2.6895656"><ele></ele><time>2025-5-19T13:17:12Z</time></trkpt>
<trkpt lat="49.1273509" lon="2.6898990"><ele></ele><time>2025-5-19T13:17:15Z</time></trkpt>
<trkpt lat="49.1274720" lon="2.6901049"><ele></ele><time>2025-5-19T13:17:18Z</time></trkpt>
</trkseg></trk></gpx>